﻿<?xml version="1.0" encoding="UTF-8" standalone="no" ?>
<gpx xmlns="http://www.topografix.com/GPX/1/1" creator="CompeGPS" version="1.1" xmlns:xsi="http://www.w3.org/2001/XMLSchema-instance" xsi:schemaLocation="http://www.topografix.com/GPX/1/1 http://www.topografix.com/GPX/1/1/gpx.xsd http://www.garmin.com/xmlschemas/GpxExtensions/v3 http://www.garmin.com/xmlschemas/GpxExtensionsv3.xsd http://www.garmin.com/xmlschemas/TrackPointExtension/v1 http://www.garmin.com/xmlschemas/TrackPointExtensionv1.xsd" xmlns:gpxtpx="http://www.garmin.com/xmlschemas/TrackPointExtension/v1">
  <metadata>
    <link href="http://www.compegps.com">
      <text>CompeGPS TEAM, SL</text>
    </link>
    <time>2013-04-27T09:52:57Z</time>
    <bounds maxlat="42.920678" maxlon="0.459649" minlat="42.903118" minlon="0.407240"/>
  </metadata>
<wpt lat="42.920353" lon="0.407265">
  <ele>1035</ele>
  <name>Parking</name>
</wpt>
<wpt lat="42.909179" lon="0.438939">
  <ele>1450</ele>
  <name>La Prade Hourquette</name>
</wpt>
<wpt lat="42.915559" lon="0.448636">
  <ele>1740</ele>
  <name>Cab. de Jezeau</name>
</wpt>
<wpt lat="42.917444" lon="0.456441">
  <ele>1930</ele>
  <name>Col 1930m</name>
</wpt>
<wpt lat="42.914690" lon="0.459587">
  <ele>2079</ele>
  <name>Montagne d Areng</name>
</wpt>
<wpt lat="42.908318" lon="0.457105">
  <ele>2001</ele>
  <name>Montagne du Pin</name>
</wpt>
<wpt lat="42.903560" lon="0.441554">
  <ele>1731</ele>
  <name>Cap d Artigue Couade</name>
</wpt>
<wpt lat="42.912946" lon="0.416929">
  <ele>1470</ele>
  <name>Plan des Pins</name>
</wpt>
<wpt lat="42.916323" lon="0.418747">
  <ele>1330</ele>
  <name>Piste forestiere</name>
</wpt>
  <trk>
    <name>Montagne d Areng</name>
    <trkseg>
      <trkpt lat="42.920353" lon="0.407265">
        <ele>1047.5</ele>
        <time>2013-04-23T07:06:51Z</time>
        <name>Parking</name>
      </trkpt>
      <trkpt lat="42.920362" lon="0.407300">
        <ele>1047.0</ele>
        <time>2013-04-23T07:09:15Z</time>
      </trkpt>
      <trkpt lat="42.920368" lon="0.407355">
        <ele>1046.1</ele>
        <time>2013-04-23T07:10:01Z</time>
      </trkpt>
      <trkpt lat="42.920357" lon="0.407499">
        <ele>1045.6</ele>
        <time>2013-04-23T07:10:13Z</time>
      </trkpt>
      <trkpt lat="42.920338" lon="0.407624">
        <ele>1045.6</ele>
        <time>2013-04-23T07:10:30Z</time>
      </trkpt>
      <trkpt lat="42.920305" lon="0.407779">
        <ele>1045.6</ele>
        <time>2013-04-23T07:10:41Z</time>
      </trkpt>
      <trkpt lat="42.920281" lon="0.407914">
        <ele>1045.6</ele>
        <time>2013-04-23T07:10:53Z</time>
      </trkpt>
      <trkpt lat="42.920219" lon="0.408006">
        <ele>1046.1</ele>
        <time>2013-04-23T07:11:01Z</time>
      </trkpt>
      <trkpt lat="42.920155" lon="0.408173">
        <ele>1046.1</ele>
        <time>2013-04-23T07:11:14Z</time>
      </trkpt>
      <trkpt lat="42.920157" lon="0.408332">
        <ele>1046.1</ele>
        <time>2013-04-23T07:11:25Z</time>
      </trkpt>
      <trkpt lat="42.920196" lon="0.408472">
        <ele>1046.1</ele>
        <time>2013-04-23T07:11:34Z</time>
      </trkpt>
      <trkpt lat="42.920204" lon="0.408620">
        <ele>1046.5</ele>
        <time>2013-04-23T07:11:43Z</time>
      </trkpt>
      <trkpt lat="42.920167" lon="0.408771">
        <ele>1047.0</ele>
        <time>2013-04-23T07:11:53Z</time>
      </trkpt>
      <trkpt lat="42.920154" lon="0.408939">
        <ele>1048.0</ele>
        <time>2013-04-23T07:12:05Z</time>
      </trkpt>
      <trkpt lat="42.920167" lon="0.409091">
        <ele>1048.4</ele>
        <time>2013-04-23T07:12:17Z</time>
      </trkpt>
      <trkpt lat="42.920234" lon="0.409257">
        <ele>1049.4</ele>
        <time>2013-04-23T07:12:29Z</time>
      </trkpt>
      <trkpt lat="42.920291" lon="0.409409">
        <ele>1048.9</ele>
        <time>2013-04-23T07:12:40Z</time>
      </trkpt>
      <trkpt lat="42.920312" lon="0.409572">
        <ele>1051.8</ele>
        <time>2013-04-23T07:12:50Z</time>
      </trkpt>
      <trkpt lat="42.920371" lon="0.409737">
        <ele>1050.9</ele>
        <time>2013-04-23T07:13:03Z</time>
      </trkpt>
      <trkpt lat="42.920411" lon="0.409923">
        <ele>1052.8</ele>
        <time>2013-04-23T07:13:16Z</time>
      </trkpt>
      <trkpt lat="42.920467" lon="0.410056">
        <ele>1053.7</ele>
        <time>2013-04-23T07:13:28Z</time>
      </trkpt>
      <trkpt lat="42.920511" lon="0.410258">
        <ele>1055.2</ele>
        <time>2013-04-23T07:13:42Z</time>
      </trkpt>
      <trkpt lat="42.920608" lon="0.410402">
        <ele>1052.8</ele>
        <time>2013-04-23T07:13:52Z</time>
      </trkpt>
      <trkpt lat="42.920678" lon="0.410569">
        <ele>1056.6</ele>
        <time>2013-04-23T07:14:03Z</time>
      </trkpt>
      <trkpt lat="42.920670" lon="0.410737">
        <ele>1057.1</ele>
        <time>2013-04-23T07:14:16Z</time>
      </trkpt>
      <trkpt lat="42.920631" lon="0.410867">
        <ele>1058.6</ele>
        <time>2013-04-23T07:14:27Z</time>
      </trkpt>
      <trkpt lat="42.920569" lon="0.410959">
        <ele>1058.6</ele>
        <time>2013-04-23T07:14:36Z</time>
      </trkpt>
      <trkpt lat="42.920440" lon="0.411053">
        <ele>1059.5</ele>
        <time>2013-04-23T07:14:47Z</time>
      </trkpt>
      <trkpt lat="42.920331" lon="0.411134">
        <ele>1059.5</ele>
        <time>2013-04-23T07:14:57Z</time>
      </trkpt>
      <trkpt lat="42.920170" lon="0.411247">
        <ele>1060.0</ele>
        <time>2013-04-23T07:15:14Z</time>
      </trkpt>
      <trkpt lat="42.920073" lon="0.411280">
        <ele>1060.5</ele>
        <time>2013-04-23T07:15:23Z</time>
      </trkpt>
      <trkpt lat="42.919943" lon="0.411380">
        <ele>1060.9</ele>
        <time>2013-04-23T07:15:36Z</time>
      </trkpt>
      <trkpt lat="42.919854" lon="0.411423">
        <ele>1061.4</ele>
        <time>2013-04-23T07:15:46Z</time>
      </trkpt>
      <trkpt lat="42.919775" lon="0.411545">
        <ele>1061.9</ele>
        <time>2013-04-23T07:16:02Z</time>
      </trkpt>
      <trkpt lat="42.919642" lon="0.411738">
        <ele>1061.9</ele>
        <time>2013-04-23T07:16:17Z</time>
      </trkpt>
      <trkpt lat="42.919534" lon="0.411862">
        <ele>1062.4</ele>
        <time>2013-04-23T07:16:26Z</time>
      </trkpt>
      <trkpt lat="42.919418" lon="0.411998">
        <ele>1062.9</ele>
        <time>2013-04-23T07:16:34Z</time>
      </trkpt>
      <trkpt lat="42.919353" lon="0.412183">
        <ele>1063.4</ele>
        <time>2013-04-23T07:16:46Z</time>
      </trkpt>
      <trkpt lat="42.919290" lon="0.412341">
        <ele>1064.8</ele>
        <time>2013-04-23T07:16:56Z</time>
      </trkpt>
      <trkpt lat="42.919222" lon="0.412495">
        <ele>1065.3</ele>
        <time>2013-04-23T07:17:06Z</time>
      </trkpt>
      <trkpt lat="42.919145" lon="0.412619">
        <ele>1065.3</ele>
        <time>2013-04-23T07:17:15Z</time>
      </trkpt>
      <trkpt lat="42.919125" lon="0.412770">
        <ele>1066.7</ele>
        <time>2013-04-23T07:17:26Z</time>
      </trkpt>
      <trkpt lat="42.919073" lon="0.412929">
        <ele>1067.7</ele>
        <time>2013-04-23T07:17:37Z</time>
      </trkpt>
      <trkpt lat="42.919000" lon="0.413091">
        <ele>1068.6</ele>
        <time>2013-04-23T07:17:49Z</time>
      </trkpt>
      <trkpt lat="42.919004" lon="0.413249">
        <ele>1069.1</ele>
        <time>2013-04-23T07:17:59Z</time>
      </trkpt>
      <trkpt lat="42.919035" lon="0.413424">
        <ele>1070.1</ele>
        <time>2013-04-23T07:18:09Z</time>
      </trkpt>
      <trkpt lat="42.919034" lon="0.413578">
        <ele>1071.1</ele>
        <time>2013-04-23T07:18:20Z</time>
      </trkpt>
      <trkpt lat="42.919046" lon="0.413767">
        <ele>1072.0</ele>
        <time>2013-04-23T07:18:33Z</time>
      </trkpt>
      <trkpt lat="42.919019" lon="0.413931">
        <ele>1073.0</ele>
        <time>2013-04-23T07:18:44Z</time>
      </trkpt>
      <trkpt lat="42.918956" lon="0.414057">
        <ele>1073.9</ele>
        <time>2013-04-23T07:18:56Z</time>
      </trkpt>
      <trkpt lat="42.918903" lon="0.414243">
        <ele>1074.9</ele>
        <time>2013-04-23T07:19:08Z</time>
      </trkpt>
      <trkpt lat="42.918874" lon="0.414388">
        <ele>1075.8</ele>
        <time>2013-04-23T07:19:18Z</time>
      </trkpt>
      <trkpt lat="42.918876" lon="0.414551">
        <ele>1077.8</ele>
        <time>2013-04-23T07:19:31Z</time>
      </trkpt>
      <trkpt lat="42.918871" lon="0.414687">
        <ele>1079.2</ele>
        <time>2013-04-23T07:19:43Z</time>
      </trkpt>
      <trkpt lat="42.918891" lon="0.414851">
        <ele>1080.7</ele>
        <time>2013-04-23T07:19:55Z</time>
      </trkpt>
      <trkpt lat="42.918899" lon="0.415035">
        <ele>1082.1</ele>
        <time>2013-04-23T07:20:07Z</time>
      </trkpt>
      <trkpt lat="42.918893" lon="0.415207">
        <ele>1083.5</ele>
        <time>2013-04-23T07:20:20Z</time>
      </trkpt>
      <trkpt lat="42.918955" lon="0.415370">
        <ele>1085.0</ele>
        <time>2013-04-23T07:20:33Z</time>
      </trkpt>
      <trkpt lat="42.919000" lon="0.415528">
        <ele>1085.9</ele>
        <time>2013-04-23T07:20:45Z</time>
      </trkpt>
      <trkpt lat="42.919035" lon="0.415671">
        <ele>1087.9</ele>
        <time>2013-04-23T07:20:58Z</time>
      </trkpt>
      <trkpt lat="42.919065" lon="0.415842">
        <ele>1089.3</ele>
        <time>2013-04-23T07:21:11Z</time>
      </trkpt>
      <trkpt lat="42.919110" lon="0.415959">
        <ele>1090.3</ele>
        <time>2013-04-23T07:21:21Z</time>
      </trkpt>
      <trkpt lat="42.919228" lon="0.416033">
        <ele>1091.7</ele>
        <time>2013-04-23T07:21:32Z</time>
      </trkpt>
      <trkpt lat="42.919358" lon="0.416073">
        <ele>1092.2</ele>
        <time>2013-04-23T07:21:42Z</time>
      </trkpt>
      <trkpt lat="42.919521" lon="0.416183">
        <ele>1093.6</ele>
        <time>2013-04-23T07:21:55Z</time>
      </trkpt>
      <trkpt lat="42.919616" lon="0.416251">
        <ele>1095.6</ele>
        <time>2013-04-23T07:22:09Z</time>
      </trkpt>
      <trkpt lat="42.919733" lon="0.416275">
        <ele>1097.5</ele>
        <time>2013-04-23T07:22:21Z</time>
      </trkpt>
      <trkpt lat="42.919858" lon="0.416399">
        <ele>1098.9</ele>
        <time>2013-04-23T07:22:31Z</time>
      </trkpt>
      <trkpt lat="42.919913" lon="0.416490">
        <ele>1100.4</ele>
        <time>2013-04-23T07:22:42Z</time>
      </trkpt>
      <trkpt lat="42.919999" lon="0.416630">
        <ele>1102.3</ele>
        <time>2013-04-23T07:22:56Z</time>
      </trkpt>
      <trkpt lat="42.920090" lon="0.416747">
        <ele>1103.7</ele>
        <time>2013-04-23T07:23:07Z</time>
      </trkpt>
      <trkpt lat="42.920128" lon="0.416892">
        <ele>1105.2</ele>
        <time>2013-04-23T07:23:17Z</time>
      </trkpt>
      <trkpt lat="42.920133" lon="0.417045">
        <ele>1105.7</ele>
        <time>2013-04-23T07:23:30Z</time>
      </trkpt>
      <trkpt lat="42.920075" lon="0.417228">
        <ele>1107.6</ele>
        <time>2013-04-23T07:23:42Z</time>
      </trkpt>
      <trkpt lat="42.920053" lon="0.417403">
        <ele>1109.0</ele>
        <time>2013-04-23T07:23:53Z</time>
      </trkpt>
      <trkpt lat="42.920060" lon="0.417580">
        <ele>1109.5</ele>
        <time>2013-04-23T07:24:04Z</time>
      </trkpt>
      <trkpt lat="42.920069" lon="0.417762">
        <ele>1110.5</ele>
        <time>2013-04-23T07:24:14Z</time>
      </trkpt>
      <trkpt lat="42.920026" lon="0.417881">
        <ele>1111.4</ele>
        <time>2013-04-23T07:24:23Z</time>
      </trkpt>
      <trkpt lat="42.920005" lon="0.418025">
        <ele>1112.9</ele>
        <time>2013-04-23T07:24:33Z</time>
      </trkpt>
      <trkpt lat="42.919985" lon="0.418190">
        <ele>1114.3</ele>
        <time>2013-04-23T07:24:45Z</time>
      </trkpt>
      <trkpt lat="42.919897" lon="0.418326">
        <ele>1115.8</ele>
        <time>2013-04-23T07:24:56Z</time>
      </trkpt>
      <trkpt lat="42.919797" lon="0.418402">
        <ele>1116.2</ele>
        <time>2013-04-23T07:25:06Z</time>
      </trkpt>
      <trkpt lat="42.919691" lon="0.418508">
        <ele>1117.2</ele>
        <time>2013-04-23T07:25:17Z</time>
      </trkpt>
      <trkpt lat="42.919612" lon="0.418631">
        <ele>1118.6</ele>
        <time>2013-04-23T07:25:28Z</time>
      </trkpt>
      <trkpt lat="42.919552" lon="0.418740">
        <ele>1119.6</ele>
        <time>2013-04-23T07:25:38Z</time>
      </trkpt>
      <trkpt lat="42.919499" lon="0.418846">
        <ele>1120.6</ele>
        <time>2013-04-23T07:25:47Z</time>
      </trkpt>
      <trkpt lat="42.919445" lon="0.418960">
        <ele>1121.5</ele>
        <time>2013-04-23T07:25:57Z</time>
      </trkpt>
      <trkpt lat="42.919379" lon="0.419053">
        <ele>1123.0</ele>
        <time>2013-04-23T07:26:07Z</time>
      </trkpt>
      <trkpt lat="42.919341" lon="0.419202">
        <ele>1123.9</ele>
        <time>2013-04-23T07:26:20Z</time>
      </trkpt>
      <trkpt lat="42.919242" lon="0.419344">
        <ele>1126.3</ele>
        <time>2013-04-23T07:26:33Z</time>
      </trkpt>
      <trkpt lat="42.919206" lon="0.419502">
        <ele>1127.3</ele>
        <time>2013-04-23T07:26:44Z</time>
      </trkpt>
      <trkpt lat="42.919115" lon="0.419676">
        <ele>1128.7</ele>
        <time>2013-04-23T07:26:55Z</time>
      </trkpt>
      <trkpt lat="42.919118" lon="0.419831">
        <ele>1130.2</ele>
        <time>2013-04-23T07:27:06Z</time>
      </trkpt>
      <trkpt lat="42.919137" lon="0.419968">
        <ele>1131.1</ele>
        <time>2013-04-23T07:27:17Z</time>
      </trkpt>
      <trkpt lat="42.919164" lon="0.420089">
        <ele>1133.1</ele>
        <time>2013-04-23T07:27:28Z</time>
      </trkpt>
      <trkpt lat="42.919205" lon="0.420238">
        <ele>1133.5</ele>
        <time>2013-04-23T07:27:38Z</time>
      </trkpt>
      <trkpt lat="42.919187" lon="0.420406">
        <ele>1135.0</ele>
        <time>2013-04-23T07:27:49Z</time>
      </trkpt>
      <trkpt lat="42.919151" lon="0.420549">
        <ele>1135.9</ele>
        <time>2013-04-23T07:27:59Z</time>
      </trkpt>
      <trkpt lat="42.919128" lon="0.420704">
        <ele>1137.4</ele>
        <time>2013-04-23T07:28:10Z</time>
      </trkpt>
      <trkpt lat="42.919126" lon="0.420883">
        <ele>1138.8</ele>
        <time>2013-04-23T07:28:22Z</time>
      </trkpt>
      <trkpt lat="42.919144" lon="0.421047">
        <ele>1140.3</ele>
        <time>2013-04-23T07:28:35Z</time>
      </trkpt>
      <trkpt lat="42.919126" lon="0.421203">
        <ele>1141.7</ele>
        <time>2013-04-23T07:28:47Z</time>
      </trkpt>
      <trkpt lat="42.919124" lon="0.421349">
        <ele>1142.7</ele>
        <time>2013-04-23T07:28:58Z</time>
      </trkpt>
      <trkpt lat="42.919130" lon="0.421508">
        <ele>1144.1</ele>
        <time>2013-04-23T07:29:10Z</time>
      </trkpt>
      <trkpt lat="42.919139" lon="0.421667">
        <ele>1144.6</ele>
        <time>2013-04-23T07:29:20Z</time>
      </trkpt>
      <trkpt lat="42.919207" lon="0.421788">
        <ele>1144.6</ele>
        <time>2013-04-23T07:29:29Z</time>
      </trkpt>
      <trkpt lat="42.919226" lon="0.421926">
        <ele>1146.5</ele>
        <time>2013-04-23T07:29:39Z</time>
      </trkpt>
      <trkpt lat="42.919249" lon="0.422045">
        <ele>1146.5</ele>
        <time>2013-04-23T07:29:48Z</time>
      </trkpt>
      <trkpt lat="42.919297" lon="0.422162">
        <ele>1147.0</ele>
        <time>2013-04-23T07:29:58Z</time>
      </trkpt>
      <trkpt lat="42.919328" lon="0.422269">
        <ele>1147.9</ele>
        <time>2013-04-23T07:30:07Z</time>
      </trkpt>
      <trkpt lat="42.919409" lon="0.422336">
        <ele>1148.9</ele>
        <time>2013-04-23T07:30:15Z</time>
      </trkpt>
      <trkpt lat="42.919484" lon="0.422400">
        <ele>1149.4</ele>
        <time>2013-04-23T07:30:22Z</time>
      </trkpt>
      <trkpt lat="42.919581" lon="0.422459">
        <ele>1150.8</ele>
        <time>2013-04-23T07:30:30Z</time>
      </trkpt>
      <trkpt lat="42.919667" lon="0.422537">
        <ele>1151.8</ele>
        <time>2013-04-23T07:30:38Z</time>
      </trkpt>
      <trkpt lat="42.919749" lon="0.422611">
        <ele>1152.8</ele>
        <time>2013-04-23T07:30:48Z</time>
      </trkpt>
      <trkpt lat="42.919818" lon="0.422704">
        <ele>1153.7</ele>
        <time>2013-04-23T07:30:57Z</time>
      </trkpt>
      <trkpt lat="42.919855" lon="0.422813">
        <ele>1154.2</ele>
        <time>2013-04-23T07:31:05Z</time>
      </trkpt>
      <trkpt lat="42.919865" lon="0.422968">
        <ele>1155.6</ele>
        <time>2013-04-23T07:31:15Z</time>
      </trkpt>
      <trkpt lat="42.919873" lon="0.423106">
        <ele>1156.1</ele>
        <time>2013-04-23T07:31:24Z</time>
      </trkpt>
      <trkpt lat="42.919845" lon="0.423253">
        <ele>1157.6</ele>
        <time>2013-04-23T07:31:35Z</time>
      </trkpt>
      <trkpt lat="42.919819" lon="0.423397">
        <ele>1159.5</ele>
        <time>2013-04-23T07:31:46Z</time>
      </trkpt>
      <trkpt lat="42.919784" lon="0.423559">
        <ele>1160.4</ele>
        <time>2013-04-23T07:31:56Z</time>
      </trkpt>
      <trkpt lat="42.919772" lon="0.423696">
        <ele>1161.9</ele>
        <time>2013-04-23T07:32:06Z</time>
      </trkpt>
      <trkpt lat="42.919782" lon="0.423859">
        <ele>1162.8</ele>
        <time>2013-04-23T07:32:18Z</time>
      </trkpt>
      <trkpt lat="42.919801" lon="0.424008">
        <ele>1164.3</ele>
        <time>2013-04-23T07:32:29Z</time>
      </trkpt>
      <trkpt lat="42.919832" lon="0.424151">
        <ele>1164.8</ele>
        <time>2013-04-23T07:32:40Z</time>
      </trkpt>
      <trkpt lat="42.919879" lon="0.424289">
        <ele>1165.7</ele>
        <time>2013-04-23T07:32:51Z</time>
      </trkpt>
      <trkpt lat="42.919855" lon="0.424449">
        <ele>1166.7</ele>
        <time>2013-04-23T07:33:01Z</time>
      </trkpt>
      <trkpt lat="42.919818" lon="0.424609">
        <ele>1169.1</ele>
        <time>2013-04-23T07:33:13Z</time>
      </trkpt>
      <trkpt lat="42.919804" lon="0.424784">
        <ele>1170.1</ele>
        <time>2013-04-23T07:33:25Z</time>
      </trkpt>
      <trkpt lat="42.919833" lon="0.424976">
        <ele>1171.0</ele>
        <time>2013-04-23T07:33:37Z</time>
      </trkpt>
      <trkpt lat="42.919831" lon="0.425140">
        <ele>1173.9</ele>
        <time>2013-04-23T07:33:49Z</time>
      </trkpt>
      <trkpt lat="42.919805" lon="0.425294">
        <ele>1174.9</ele>
        <time>2013-04-23T07:34:00Z</time>
      </trkpt>
      <trkpt lat="42.919833" lon="0.425438">
        <ele>1176.3</ele>
        <time>2013-04-23T07:34:11Z</time>
      </trkpt>
      <trkpt lat="42.919828" lon="0.425629">
        <ele>1177.8</ele>
        <time>2013-04-23T07:34:23Z</time>
      </trkpt>
      <trkpt lat="42.919833" lon="0.425802">
        <ele>1178.7</ele>
        <time>2013-04-23T07:34:35Z</time>
      </trkpt>
      <trkpt lat="42.919778" lon="0.425954">
        <ele>1180.2</ele>
        <time>2013-04-23T07:34:48Z</time>
      </trkpt>
      <trkpt lat="42.919691" lon="0.426033">
        <ele>1182.1</ele>
        <time>2013-04-23T07:34:58Z</time>
      </trkpt>
      <trkpt lat="42.919610" lon="0.426106">
        <ele>1183.0</ele>
        <time>2013-04-23T07:35:08Z</time>
      </trkpt>
      <trkpt lat="42.919520" lon="0.426138">
        <ele>1185.0</ele>
        <time>2013-04-23T07:35:18Z</time>
      </trkpt>
      <trkpt lat="42.919414" lon="0.426198">
        <ele>1186.4</ele>
        <time>2013-04-23T07:35:29Z</time>
      </trkpt>
      <trkpt lat="42.919303" lon="0.426250">
        <ele>1187.8</ele>
        <time>2013-04-23T07:35:40Z</time>
      </trkpt>
      <trkpt lat="42.919202" lon="0.426246">
        <ele>1189.8</ele>
        <time>2013-04-23T07:35:54Z</time>
      </trkpt>
      <trkpt lat="42.919081" lon="0.426327">
        <ele>1192.2</ele>
        <time>2013-04-23T07:36:10Z</time>
      </trkpt>
      <trkpt lat="42.918903" lon="0.426449">
        <ele>1196.5</ele>
        <time>2013-04-23T07:36:35Z</time>
      </trkpt>
      <trkpt lat="42.918839" lon="0.426565">
        <ele>1197.5</ele>
        <time>2013-04-23T07:36:50Z</time>
      </trkpt>
      <trkpt lat="42.918731" lon="0.426720">
        <ele>1200.8</ele>
        <time>2013-04-23T07:37:06Z</time>
      </trkpt>
      <trkpt lat="42.918689" lon="0.426876">
        <ele>1201.8</ele>
        <time>2013-04-23T07:37:24Z</time>
      </trkpt>
      <trkpt lat="42.918681" lon="0.427022">
        <ele>1204.2</ele>
        <time>2013-04-23T07:37:37Z</time>
      </trkpt>
      <trkpt lat="42.918659" lon="0.427178">
        <ele>1206.1</ele>
        <time>2013-04-23T07:37:50Z</time>
      </trkpt>
      <trkpt lat="42.918612" lon="0.427319">
        <ele>1208.0</ele>
        <time>2013-04-23T07:38:05Z</time>
      </trkpt>
      <trkpt lat="42.918607" lon="0.427486">
        <ele>1209.5</ele>
        <time>2013-04-23T07:38:18Z</time>
      </trkpt>
      <trkpt lat="42.918550" lon="0.427629">
        <ele>1210.9</ele>
        <time>2013-04-23T07:38:32Z</time>
      </trkpt>
      <trkpt lat="42.918546" lon="0.427825">
        <ele>1213.3</ele>
        <time>2013-04-23T07:38:52Z</time>
      </trkpt>
      <trkpt lat="42.918617" lon="0.428017">
        <ele>1215.2</ele>
        <time>2013-04-23T07:39:07Z</time>
      </trkpt>
      <trkpt lat="42.918628" lon="0.428220">
        <ele>1217.7</ele>
        <time>2013-04-23T07:39:23Z</time>
      </trkpt>
      <trkpt lat="42.918689" lon="0.428337">
        <ele>1219.1</ele>
        <time>2013-04-23T07:39:37Z</time>
      </trkpt>
      <trkpt lat="42.918769" lon="0.428439">
        <ele>1221.5</ele>
        <time>2013-04-23T07:39:52Z</time>
      </trkpt>
      <trkpt lat="42.918835" lon="0.428515">
        <ele>1223.4</ele>
        <time>2013-04-23T07:40:05Z</time>
      </trkpt>
      <trkpt lat="42.918951" lon="0.428597">
        <ele>1225.3</ele>
        <time>2013-04-23T07:40:19Z</time>
      </trkpt>
      <trkpt lat="42.919053" lon="0.428693">
        <ele>1227.7</ele>
        <time>2013-04-23T07:40:33Z</time>
      </trkpt>
      <trkpt lat="42.919175" lon="0.428792">
        <ele>1229.7</ele>
        <time>2013-04-23T07:40:47Z</time>
      </trkpt>
      <trkpt lat="42.919284" lon="0.428879">
        <ele>1231.6</ele>
        <time>2013-04-23T07:41:00Z</time>
      </trkpt>
      <trkpt lat="42.919342" lon="0.428963">
        <ele>1233.5</ele>
        <time>2013-04-23T07:41:13Z</time>
      </trkpt>
      <trkpt lat="42.919417" lon="0.429042">
        <ele>1235.4</ele>
        <time>2013-04-23T07:41:26Z</time>
      </trkpt>
      <trkpt lat="42.919468" lon="0.429129">
        <ele>1237.3</ele>
        <time>2013-04-23T07:42:38Z</time>
      </trkpt>
      <trkpt lat="42.919546" lon="0.429284">
        <ele>1240.7</ele>
        <time>2013-04-23T07:44:05Z</time>
      </trkpt>
      <trkpt lat="42.919483" lon="0.429498">
        <ele>1243.1</ele>
        <time>2013-04-23T07:44:20Z</time>
      </trkpt>
      <trkpt lat="42.919517" lon="0.429647">
        <ele>1245.5</ele>
        <time>2013-04-23T07:44:35Z</time>
      </trkpt>
      <trkpt lat="42.919486" lon="0.429841">
        <ele>1248.4</ele>
        <time>2013-04-23T07:44:52Z</time>
      </trkpt>
      <trkpt lat="42.919532" lon="0.429993">
        <ele>1250.8</ele>
        <time>2013-04-23T07:45:06Z</time>
      </trkpt>
      <trkpt lat="42.919535" lon="0.430158">
        <ele>1251.8</ele>
        <time>2013-04-23T07:45:19Z</time>
      </trkpt>
      <trkpt lat="42.919518" lon="0.430289">
        <ele>1253.7</ele>
        <time>2013-04-23T07:45:30Z</time>
      </trkpt>
      <trkpt lat="42.919478" lon="0.430435">
        <ele>1254.7</ele>
        <time>2013-04-23T07:45:41Z</time>
      </trkpt>
      <trkpt lat="42.919419" lon="0.430571">
        <ele>1256.6</ele>
        <time>2013-04-23T07:45:54Z</time>
      </trkpt>
      <trkpt lat="42.919344" lon="0.430669">
        <ele>1259.0</ele>
        <time>2013-04-23T07:46:09Z</time>
      </trkpt>
      <trkpt lat="42.919252" lon="0.430741">
        <ele>1260.9</ele>
        <time>2013-04-23T07:46:23Z</time>
      </trkpt>
      <trkpt lat="42.919127" lon="0.430805">
        <ele>1262.8</ele>
        <time>2013-04-23T07:46:36Z</time>
      </trkpt>
      <trkpt lat="42.919001" lon="0.430905">
        <ele>1264.8</ele>
        <time>2013-04-23T07:46:52Z</time>
      </trkpt>
      <trkpt lat="42.918874" lon="0.431014">
        <ele>1266.2</ele>
        <time>2013-04-23T07:47:05Z</time>
      </trkpt>
      <trkpt lat="42.918787" lon="0.431162">
        <ele>1267.6</ele>
        <time>2013-04-23T07:47:18Z</time>
      </trkpt>
      <trkpt lat="42.918749" lon="0.431292">
        <ele>1269.6</ele>
        <time>2013-04-23T07:47:30Z</time>
      </trkpt>
      <trkpt lat="42.918696" lon="0.431429">
        <ele>1271.5</ele>
        <time>2013-04-23T07:47:41Z</time>
      </trkpt>
      <trkpt lat="42.918631" lon="0.431552">
        <ele>1272.0</ele>
        <time>2013-04-23T07:47:51Z</time>
      </trkpt>
      <trkpt lat="42.918573" lon="0.431682">
        <ele>1272.4</ele>
        <time>2013-04-23T07:48:03Z</time>
      </trkpt>
      <trkpt lat="42.918486" lon="0.431761">
        <ele>1273.4</ele>
        <time>2013-04-23T07:48:15Z</time>
      </trkpt>
      <trkpt lat="42.918367" lon="0.431843">
        <ele>1274.4</ele>
        <time>2013-04-23T07:48:26Z</time>
      </trkpt>
      <trkpt lat="42.918272" lon="0.431933">
        <ele>1274.8</ele>
        <time>2013-04-23T07:48:38Z</time>
      </trkpt>
      <trkpt lat="42.918184" lon="0.432004">
        <ele>1275.3</ele>
        <time>2013-04-23T07:48:48Z</time>
      </trkpt>
      <trkpt lat="42.918069" lon="0.432077">
        <ele>1276.8</ele>
        <time>2013-04-23T07:48:59Z</time>
      </trkpt>
      <trkpt lat="42.917961" lon="0.432170">
        <ele>1278.7</ele>
        <time>2013-04-23T07:49:12Z</time>
      </trkpt>
      <trkpt lat="42.917843" lon="0.432277">
        <ele>1280.6</ele>
        <time>2013-04-23T07:49:28Z</time>
      </trkpt>
      <trkpt lat="42.917689" lon="0.432358">
        <ele>1283.0</ele>
        <time>2013-04-23T07:49:51Z</time>
      </trkpt>
      <trkpt lat="42.917544" lon="0.432389">
        <ele>1285.9</ele>
        <time>2013-04-23T07:50:09Z</time>
      </trkpt>
      <trkpt lat="42.917436" lon="0.432349">
        <ele>1288.8</ele>
        <time>2013-04-23T07:50:25Z</time>
      </trkpt>
      <trkpt lat="42.917323" lon="0.432346">
        <ele>1291.7</ele>
        <time>2013-04-23T07:50:48Z</time>
      </trkpt>
      <trkpt lat="42.917195" lon="0.432412">
        <ele>1294.6</ele>
        <time>2013-04-23T07:51:08Z</time>
      </trkpt>
      <trkpt lat="42.917034" lon="0.432538">
        <ele>1297.0</ele>
        <time>2013-04-23T07:51:31Z</time>
      </trkpt>
      <trkpt lat="42.916889" lon="0.432586">
        <ele>1299.4</ele>
        <time>2013-04-23T07:51:48Z</time>
      </trkpt>
      <trkpt lat="42.916737" lon="0.432588">
        <ele>1302.7</ele>
        <time>2013-04-23T07:52:10Z</time>
      </trkpt>
      <trkpt lat="42.916598" lon="0.432475">
        <ele>1305.6</ele>
        <time>2013-04-23T07:52:29Z</time>
      </trkpt>
      <trkpt lat="42.916460" lon="0.432437">
        <ele>1308.5</ele>
        <time>2013-04-23T07:52:46Z</time>
      </trkpt>
      <trkpt lat="42.916364" lon="0.432514">
        <ele>1309.9</ele>
        <time>2013-04-23T07:53:22Z</time>
      </trkpt>
      <trkpt lat="42.916275" lon="0.432549">
        <ele>1314.7</ele>
        <time>2013-04-23T08:04:11Z</time>
      </trkpt>
      <trkpt lat="42.916230" lon="0.432635">
        <ele>1316.2</ele>
        <time>2013-04-23T08:04:35Z</time>
      </trkpt>
      <trkpt lat="42.916141" lon="0.432699">
        <ele>1319.1</ele>
        <time>2013-04-23T08:04:54Z</time>
      </trkpt>
      <trkpt lat="42.916044" lon="0.432822">
        <ele>1321.5</ele>
        <time>2013-04-23T08:05:18Z</time>
      </trkpt>
      <trkpt lat="42.915952" lon="0.432895">
        <ele>1324.8</ele>
        <time>2013-04-23T08:05:43Z</time>
      </trkpt>
      <trkpt lat="42.915940" lon="0.432913">
        <ele>1326.3</ele>
        <time>2013-04-23T08:06:30Z</time>
      </trkpt>
      <trkpt lat="42.915858" lon="0.433072">
        <ele>1328.2</ele>
        <time>2013-04-23T08:06:43Z</time>
      </trkpt>
      <trkpt lat="42.915782" lon="0.433186">
        <ele>1330.1</ele>
        <time>2013-04-23T08:06:54Z</time>
      </trkpt>
      <trkpt lat="42.915717" lon="0.433314">
        <ele>1333.0</ele>
        <time>2013-04-23T08:07:05Z</time>
      </trkpt>
      <trkpt lat="42.915654" lon="0.433417">
        <ele>1334.4</ele>
        <time>2013-04-23T08:07:18Z</time>
      </trkpt>
      <trkpt lat="42.915579" lon="0.433542">
        <ele>1336.8</ele>
        <time>2013-04-23T08:07:33Z</time>
      </trkpt>
      <trkpt lat="42.915491" lon="0.433650">
        <ele>1340.7</ele>
        <time>2013-04-23T08:07:50Z</time>
      </trkpt>
      <trkpt lat="42.915372" lon="0.433787">
        <ele>1343.1</ele>
        <time>2013-04-23T08:08:13Z</time>
      </trkpt>
      <trkpt lat="42.915278" lon="0.433908">
        <ele>1346.0</ele>
        <time>2013-04-23T08:08:40Z</time>
      </trkpt>
      <trkpt lat="42.915186" lon="0.434007">
        <ele>1349.3</ele>
        <time>2013-04-23T08:08:58Z</time>
      </trkpt>
      <trkpt lat="42.915132" lon="0.434140">
        <ele>1351.3</ele>
        <time>2013-04-23T08:09:13Z</time>
      </trkpt>
      <trkpt lat="42.915113" lon="0.434281">
        <ele>1353.2</ele>
        <time>2013-04-23T08:09:31Z</time>
      </trkpt>
      <trkpt lat="42.915052" lon="0.434394">
        <ele>1357.0</ele>
        <time>2013-04-23T08:09:58Z</time>
      </trkpt>
      <trkpt lat="42.914970" lon="0.434603">
        <ele>1359.9</ele>
        <time>2013-04-23T08:10:23Z</time>
      </trkpt>
      <trkpt lat="42.914905" lon="0.434844">
        <ele>1365.2</ele>
        <time>2013-04-23T08:11:01Z</time>
      </trkpt>
      <trkpt lat="42.914834" lon="0.434989">
        <ele>1369.1</ele>
        <time>2013-04-23T08:11:24Z</time>
      </trkpt>
      <trkpt lat="42.914751" lon="0.435172">
        <ele>1371.9</ele>
        <time>2013-04-23T08:11:49Z</time>
      </trkpt>
      <trkpt lat="42.914659" lon="0.435352">
        <ele>1375.3</ele>
        <time>2013-04-23T08:12:09Z</time>
      </trkpt>
      <trkpt lat="42.914589" lon="0.435467">
        <ele>1377.7</ele>
        <time>2013-04-23T08:12:27Z</time>
      </trkpt>
      <trkpt lat="42.914504" lon="0.435589">
        <ele>1381.1</ele>
        <time>2013-04-23T08:12:45Z</time>
      </trkpt>
      <trkpt lat="42.914424" lon="0.435681">
        <ele>1383.0</ele>
        <time>2013-04-23T08:13:03Z</time>
      </trkpt>
      <trkpt lat="42.914361" lon="0.435780">
        <ele>1385.4</ele>
        <time>2013-04-23T08:13:22Z</time>
      </trkpt>
      <trkpt lat="42.914264" lon="0.435896">
        <ele>1387.3</ele>
        <time>2013-04-23T08:13:42Z</time>
      </trkpt>
      <trkpt lat="42.914177" lon="0.435997">
        <ele>1389.2</ele>
        <time>2013-04-23T08:13:59Z</time>
      </trkpt>
      <trkpt lat="42.914099" lon="0.436081">
        <ele>1389.7</ele>
        <time>2013-04-23T08:14:17Z</time>
      </trkpt>
      <trkpt lat="42.914015" lon="0.436203">
        <ele>1393.1</ele>
        <time>2013-04-23T08:14:32Z</time>
      </trkpt>
      <trkpt lat="42.913927" lon="0.436316">
        <ele>1395.5</ele>
        <time>2013-04-23T08:14:49Z</time>
      </trkpt>
      <trkpt lat="42.913824" lon="0.436362">
        <ele>1397.4</ele>
        <time>2013-04-23T08:15:04Z</time>
      </trkpt>
      <trkpt lat="42.913713" lon="0.436419">
        <ele>1398.4</ele>
        <time>2013-04-23T08:15:18Z</time>
      </trkpt>
      <trkpt lat="42.913616" lon="0.436482">
        <ele>1400.3</ele>
        <time>2013-04-23T08:15:36Z</time>
      </trkpt>
      <trkpt lat="42.913523" lon="0.436563">
        <ele>1401.7</ele>
        <time>2013-04-23T08:15:52Z</time>
      </trkpt>
      <trkpt lat="42.913447" lon="0.436657">
        <ele>1404.1</ele>
        <time>2013-04-23T08:16:07Z</time>
      </trkpt>
      <trkpt lat="42.913371" lon="0.436728">
        <ele>1405.6</ele>
        <time>2013-04-23T08:16:20Z</time>
      </trkpt>
      <trkpt lat="42.913277" lon="0.436784">
        <ele>1407.0</ele>
        <time>2013-04-23T08:16:35Z</time>
      </trkpt>
      <trkpt lat="42.913190" lon="0.436851">
        <ele>1408.9</ele>
        <time>2013-04-23T08:16:48Z</time>
      </trkpt>
      <trkpt lat="42.913084" lon="0.436875">
        <ele>1410.4</ele>
        <time>2013-04-23T08:17:03Z</time>
      </trkpt>
      <trkpt lat="42.912987" lon="0.436878">
        <ele>1411.3</ele>
        <time>2013-04-23T08:17:15Z</time>
      </trkpt>
      <trkpt lat="42.912877" lon="0.436940">
        <ele>1413.3</ele>
        <time>2013-04-23T08:17:29Z</time>
      </trkpt>
      <trkpt lat="42.912770" lon="0.436966">
        <ele>1414.7</ele>
        <time>2013-04-23T08:17:42Z</time>
      </trkpt>
      <trkpt lat="42.912661" lon="0.436983">
        <ele>1416.6</ele>
        <time>2013-04-23T08:18:05Z</time>
      </trkpt>
      <trkpt lat="42.912543" lon="0.436995">
        <ele>1418.1</ele>
        <time>2013-04-23T08:18:18Z</time>
      </trkpt>
      <trkpt lat="42.912389" lon="0.436978">
        <ele>1419.0</ele>
        <time>2013-04-23T08:18:31Z</time>
      </trkpt>
      <trkpt lat="42.912273" lon="0.436988">
        <ele>1420.5</ele>
        <time>2013-04-23T08:18:46Z</time>
      </trkpt>
      <trkpt lat="42.912197" lon="0.436989">
        <ele>1421.9</ele>
        <time>2013-04-23T08:18:59Z</time>
      </trkpt>
      <trkpt lat="42.912109" lon="0.436973">
        <ele>1422.9</ele>
        <time>2013-04-23T08:19:13Z</time>
      </trkpt>
      <trkpt lat="42.911999" lon="0.437024">
        <ele>1424.8</ele>
        <time>2013-04-23T08:19:29Z</time>
      </trkpt>
      <trkpt lat="42.911909" lon="0.437080">
        <ele>1426.2</ele>
        <time>2013-04-23T08:19:42Z</time>
      </trkpt>
      <trkpt lat="42.911829" lon="0.437152">
        <ele>1427.7</ele>
        <time>2013-04-23T08:19:55Z</time>
      </trkpt>
      <trkpt lat="42.911723" lon="0.437238">
        <ele>1428.7</ele>
        <time>2013-04-23T08:20:09Z</time>
      </trkpt>
      <trkpt lat="42.911639" lon="0.437317">
        <ele>1429.6</ele>
        <time>2013-04-23T08:20:23Z</time>
      </trkpt>
      <trkpt lat="42.911527" lon="0.437359">
        <ele>1430.6</ele>
        <time>2013-04-23T08:20:36Z</time>
      </trkpt>
      <trkpt lat="42.911429" lon="0.437411">
        <ele>1431.5</ele>
        <time>2013-04-23T08:20:56Z</time>
      </trkpt>
      <trkpt lat="42.911344" lon="0.437498">
        <ele>1432.0</ele>
        <time>2013-04-23T08:21:07Z</time>
      </trkpt>
      <trkpt lat="42.911253" lon="0.437557">
        <ele>1433.9</ele>
        <time>2013-04-23T08:21:19Z</time>
      </trkpt>
      <trkpt lat="42.911160" lon="0.437616">
        <ele>1434.4</ele>
        <time>2013-04-23T08:21:31Z</time>
      </trkpt>
      <trkpt lat="42.911046" lon="0.437641">
        <ele>1435.9</ele>
        <time>2013-04-23T08:21:43Z</time>
      </trkpt>
      <trkpt lat="42.910943" lon="0.437651">
        <ele>1436.3</ele>
        <time>2013-04-23T08:21:54Z</time>
      </trkpt>
      <trkpt lat="42.910841" lon="0.437733">
        <ele>1437.3</ele>
        <time>2013-04-23T08:22:07Z</time>
      </trkpt>
      <trkpt lat="42.910744" lon="0.437840">
        <ele>1438.8</ele>
        <time>2013-04-23T08:22:21Z</time>
      </trkpt>
      <trkpt lat="42.910668" lon="0.437898">
        <ele>1440.2</ele>
        <time>2013-04-23T08:22:33Z</time>
      </trkpt>
      <trkpt lat="42.910573" lon="0.437944">
        <ele>1440.7</ele>
        <time>2013-04-23T08:22:45Z</time>
      </trkpt>
      <trkpt lat="42.910477" lon="0.437979">
        <ele>1441.6</ele>
        <time>2013-04-23T08:22:57Z</time>
      </trkpt>
      <trkpt lat="42.910388" lon="0.438033">
        <ele>1443.1</ele>
        <time>2013-04-23T08:23:09Z</time>
      </trkpt>
      <trkpt lat="42.910296" lon="0.438097">
        <ele>1444.0</ele>
        <time>2013-04-23T08:23:21Z</time>
      </trkpt>
      <trkpt lat="42.910208" lon="0.438137">
        <ele>1445.0</ele>
        <time>2013-04-23T08:23:32Z</time>
      </trkpt>
      <trkpt lat="42.910105" lon="0.438185">
        <ele>1446.0</ele>
        <time>2013-04-23T08:23:44Z</time>
      </trkpt>
      <trkpt lat="42.910002" lon="0.438239">
        <ele>1447.4</ele>
        <time>2013-04-23T08:23:56Z</time>
      </trkpt>
      <trkpt lat="42.909911" lon="0.438208">
        <ele>1448.8</ele>
        <time>2013-04-23T08:24:10Z</time>
      </trkpt>
      <trkpt lat="42.909798" lon="0.438180">
        <ele>1450.8</ele>
        <time>2013-04-23T08:24:25Z</time>
      </trkpt>
      <trkpt lat="42.909671" lon="0.438240">
        <ele>1451.7</ele>
        <time>2013-04-23T08:24:38Z</time>
      </trkpt>
      <trkpt lat="42.909598" lon="0.438307">
        <ele>1453.7</ele>
        <time>2013-04-23T08:24:52Z</time>
      </trkpt>
      <trkpt lat="42.909521" lon="0.438419">
        <ele>1454.6</ele>
        <time>2013-04-23T08:25:05Z</time>
      </trkpt>
      <trkpt lat="42.909456" lon="0.438560">
        <ele>1455.6</ele>
        <time>2013-04-23T08:25:18Z</time>
      </trkpt>
      <trkpt lat="42.909399" lon="0.438669">
        <ele>1456.1</ele>
        <time>2013-04-23T08:25:30Z</time>
      </trkpt>
      <trkpt lat="42.909319" lon="0.438741">
        <ele>1458.0</ele>
        <time>2013-04-23T08:25:43Z</time>
      </trkpt>
      <trkpt lat="42.909236" lon="0.438823">
        <ele>1458.9</ele>
        <time>2013-04-23T08:25:57Z</time>
      </trkpt>
      <trkpt lat="42.909179" lon="0.438939">
        <ele>1460.4</ele>
        <time>2013-04-23T08:26:13Z</time>
        <name>La Prade Hourquette</name>
      </trkpt>
      <trkpt lat="42.909163" lon="0.438977">
        <ele>1461.3</ele>
        <time>2013-04-23T08:27:56Z</time>
      </trkpt>
      <trkpt lat="42.909193" lon="0.439127">
        <ele>1463.3</ele>
        <time>2013-04-23T08:28:50Z</time>
      </trkpt>
      <trkpt lat="42.909221" lon="0.439270">
        <ele>1465.2</ele>
        <time>2013-04-23T08:29:09Z</time>
      </trkpt>
      <trkpt lat="42.909249" lon="0.439400">
        <ele>1468.1</ele>
        <time>2013-04-23T08:29:26Z</time>
      </trkpt>
      <trkpt lat="42.909286" lon="0.439536">
        <ele>1470.9</ele>
        <time>2013-04-23T08:29:46Z</time>
      </trkpt>
      <trkpt lat="42.909279" lon="0.439696">
        <ele>1474.3</ele>
        <time>2013-04-23T08:30:05Z</time>
      </trkpt>
      <trkpt lat="42.909232" lon="0.439846">
        <ele>1478.2</ele>
        <time>2013-04-23T08:30:31Z</time>
      </trkpt>
      <trkpt lat="42.909198" lon="0.440001">
        <ele>1480.6</ele>
        <time>2013-04-23T08:30:51Z</time>
      </trkpt>
      <trkpt lat="42.909160" lon="0.440208">
        <ele>1483.0</ele>
        <time>2013-04-23T08:31:08Z</time>
      </trkpt>
      <trkpt lat="42.909152" lon="0.440370">
        <ele>1485.8</ele>
        <time>2013-04-23T08:31:25Z</time>
      </trkpt>
      <trkpt lat="42.909097" lon="0.440500">
        <ele>1486.8</ele>
        <time>2013-04-23T08:31:56Z</time>
      </trkpt>
      <trkpt lat="42.909084" lon="0.440659">
        <ele>1489.2</ele>
        <time>2013-04-23T08:32:15Z</time>
      </trkpt>
      <trkpt lat="42.909100" lon="0.440817">
        <ele>1491.6</ele>
        <time>2013-04-23T08:32:36Z</time>
      </trkpt>
      <trkpt lat="42.909073" lon="0.440981">
        <ele>1493.6</ele>
        <time>2013-04-23T08:32:53Z</time>
      </trkpt>
      <trkpt lat="42.909013" lon="0.441148">
        <ele>1494.5</ele>
        <time>2013-04-23T08:33:13Z</time>
      </trkpt>
      <trkpt lat="42.909037" lon="0.441410">
        <ele>1496.9</ele>
        <time>2013-04-23T08:33:30Z</time>
      </trkpt>
      <trkpt lat="42.909068" lon="0.441567">
        <ele>1498.8</ele>
        <time>2013-04-23T08:33:47Z</time>
      </trkpt>
      <trkpt lat="42.909092" lon="0.441763">
        <ele>1501.2</ele>
        <time>2013-04-23T08:34:06Z</time>
      </trkpt>
      <trkpt lat="42.909129" lon="0.441984">
        <ele>1503.6</ele>
        <time>2013-04-23T08:34:29Z</time>
      </trkpt>
      <trkpt lat="42.909106" lon="0.442152">
        <ele>1506.0</ele>
        <time>2013-04-23T08:34:46Z</time>
      </trkpt>
      <trkpt lat="42.909106" lon="0.442303">
        <ele>1507.5</ele>
        <time>2013-04-23T08:35:03Z</time>
      </trkpt>
      <trkpt lat="42.909126" lon="0.442475">
        <ele>1509.4</ele>
        <time>2013-04-23T08:35:20Z</time>
      </trkpt>
      <trkpt lat="42.909087" lon="0.442705">
        <ele>1511.3</ele>
        <time>2013-04-23T08:36:06Z</time>
      </trkpt>
      <trkpt lat="42.909126" lon="0.442840">
        <ele>1513.2</ele>
        <time>2013-04-23T08:36:55Z</time>
      </trkpt>
      <trkpt lat="42.909134" lon="0.443042">
        <ele>1516.1</ele>
        <time>2013-04-23T08:38:28Z</time>
      </trkpt>
      <trkpt lat="42.909183" lon="0.443216">
        <ele>1518.5</ele>
        <time>2013-04-23T08:38:46Z</time>
      </trkpt>
      <trkpt lat="42.909239" lon="0.443349">
        <ele>1521.4</ele>
        <time>2013-04-23T08:39:06Z</time>
      </trkpt>
      <trkpt lat="42.909305" lon="0.443472">
        <ele>1523.3</ele>
        <time>2013-04-23T08:39:21Z</time>
      </trkpt>
      <trkpt lat="42.909377" lon="0.443572">
        <ele>1526.7</ele>
        <time>2013-04-23T08:39:37Z</time>
      </trkpt>
      <trkpt lat="42.909436" lon="0.443689">
        <ele>1528.6</ele>
        <time>2013-04-23T08:39:53Z</time>
      </trkpt>
      <trkpt lat="42.909488" lon="0.443830">
        <ele>1530.6</ele>
        <time>2013-04-23T08:40:09Z</time>
      </trkpt>
      <trkpt lat="42.909525" lon="0.443960">
        <ele>1532.0</ele>
        <time>2013-04-23T08:40:25Z</time>
      </trkpt>
      <trkpt lat="42.909567" lon="0.444074">
        <ele>1534.9</ele>
        <time>2013-04-23T08:40:43Z</time>
      </trkpt>
      <trkpt lat="42.909617" lon="0.444217">
        <ele>1536.3</ele>
        <time>2013-04-23T08:40:57Z</time>
      </trkpt>
      <trkpt lat="42.909673" lon="0.444351">
        <ele>1538.2</ele>
        <time>2013-04-23T08:41:10Z</time>
      </trkpt>
      <trkpt lat="42.909704" lon="0.444499">
        <ele>1540.7</ele>
        <time>2013-04-23T08:41:23Z</time>
      </trkpt>
      <trkpt lat="42.909750" lon="0.444622">
        <ele>1542.6</ele>
        <time>2013-04-23T08:41:38Z</time>
      </trkpt>
      <trkpt lat="42.909810" lon="0.444743">
        <ele>1545.0</ele>
        <time>2013-04-23T08:41:52Z</time>
      </trkpt>
      <trkpt lat="42.909861" lon="0.444869">
        <ele>1546.4</ele>
        <time>2013-04-23T08:42:05Z</time>
      </trkpt>
      <trkpt lat="42.909911" lon="0.444985">
        <ele>1548.3</ele>
        <time>2013-04-23T08:42:20Z</time>
      </trkpt>
      <trkpt lat="42.909986" lon="0.445101">
        <ele>1551.2</ele>
        <time>2013-04-23T08:42:38Z</time>
      </trkpt>
      <trkpt lat="42.910029" lon="0.445220">
        <ele>1553.2</ele>
        <time>2013-04-23T08:42:52Z</time>
      </trkpt>
      <trkpt lat="42.910060" lon="0.445308">
        <ele>1554.6</ele>
        <time>2013-04-23T08:43:09Z</time>
      </trkpt>
      <trkpt lat="42.910111" lon="0.445371">
        <ele>1557.0</ele>
        <time>2013-04-23T08:45:08Z</time>
      </trkpt>
      <trkpt lat="42.910145" lon="0.445523">
        <ele>1558.4</ele>
        <time>2013-04-23T08:45:34Z</time>
      </trkpt>
      <trkpt lat="42.910172" lon="0.445643">
        <ele>1559.4</ele>
        <time>2013-04-23T08:45:47Z</time>
      </trkpt>
      <trkpt lat="42.910214" lon="0.445766">
        <ele>1560.4</ele>
        <time>2013-04-23T08:46:01Z</time>
      </trkpt>
      <trkpt lat="42.910242" lon="0.445891">
        <ele>1562.3</ele>
        <time>2013-04-23T08:46:14Z</time>
      </trkpt>
      <trkpt lat="42.910310" lon="0.446060">
        <ele>1564.7</ele>
        <time>2013-04-23T08:46:28Z</time>
      </trkpt>
      <trkpt lat="42.910366" lon="0.446224">
        <ele>1566.6</ele>
        <time>2013-04-23T08:46:42Z</time>
      </trkpt>
      <trkpt lat="42.910418" lon="0.446355">
        <ele>1568.5</ele>
        <time>2013-04-23T08:46:58Z</time>
      </trkpt>
      <trkpt lat="42.910456" lon="0.446511">
        <ele>1570.4</ele>
        <time>2013-04-23T08:47:12Z</time>
      </trkpt>
      <trkpt lat="42.910526" lon="0.446627">
        <ele>1572.8</ele>
        <time>2013-04-23T08:47:25Z</time>
      </trkpt>
      <trkpt lat="42.910587" lon="0.446756">
        <ele>1574.8</ele>
        <time>2013-04-23T08:47:39Z</time>
      </trkpt>
      <trkpt lat="42.910649" lon="0.446902">
        <ele>1576.2</ele>
        <time>2013-04-23T08:47:56Z</time>
      </trkpt>
      <trkpt lat="42.910709" lon="0.447031">
        <ele>1578.6</ele>
        <time>2013-04-23T08:48:12Z</time>
      </trkpt>
      <trkpt lat="42.910768" lon="0.447186">
        <ele>1580.1</ele>
        <time>2013-04-23T08:48:32Z</time>
      </trkpt>
      <trkpt lat="42.910808" lon="0.447328">
        <ele>1582.0</ele>
        <time>2013-04-23T08:48:49Z</time>
      </trkpt>
      <trkpt lat="42.910854" lon="0.447432">
        <ele>1583.9</ele>
        <time>2013-04-23T08:49:06Z</time>
      </trkpt>
      <trkpt lat="42.910871" lon="0.447559">
        <ele>1585.3</ele>
        <time>2013-04-23T08:49:24Z</time>
      </trkpt>
      <trkpt lat="42.910906" lon="0.447754">
        <ele>1587.3</ele>
        <time>2013-04-23T08:49:45Z</time>
      </trkpt>
      <trkpt lat="42.910941" lon="0.447953">
        <ele>1589.2</ele>
        <time>2013-04-23T08:50:03Z</time>
      </trkpt>
      <trkpt lat="42.911005" lon="0.448066">
        <ele>1591.6</ele>
        <time>2013-04-23T08:50:20Z</time>
      </trkpt>
      <trkpt lat="42.911050" lon="0.448164">
        <ele>1593.5</ele>
        <time>2013-04-23T08:50:35Z</time>
      </trkpt>
      <trkpt lat="42.911086" lon="0.448272">
        <ele>1594.5</ele>
        <time>2013-04-23T08:50:52Z</time>
      </trkpt>
      <trkpt lat="42.911145" lon="0.448401">
        <ele>1595.9</ele>
        <time>2013-04-23T08:51:36Z</time>
      </trkpt>
      <trkpt lat="42.911222" lon="0.448562">
        <ele>1598.3</ele>
        <time>2013-04-23T08:54:38Z</time>
      </trkpt>
      <trkpt lat="42.911289" lon="0.448640">
        <ele>1601.2</ele>
        <time>2013-04-23T08:55:02Z</time>
      </trkpt>
      <trkpt lat="42.911335" lon="0.448750">
        <ele>1604.6</ele>
        <time>2013-04-23T08:55:25Z</time>
      </trkpt>
      <trkpt lat="42.911410" lon="0.448828">
        <ele>1607.9</ele>
        <time>2013-04-23T08:55:44Z</time>
      </trkpt>
      <trkpt lat="42.911490" lon="0.448893">
        <ele>1611.8</ele>
        <time>2013-04-23T08:56:06Z</time>
      </trkpt>
      <trkpt lat="42.911533" lon="0.449005">
        <ele>1615.2</ele>
        <time>2013-04-23T08:56:25Z</time>
      </trkpt>
      <trkpt lat="42.911608" lon="0.449019">
        <ele>1620.4</ele>
        <time>2013-04-23T08:57:22Z</time>
      </trkpt>
      <trkpt lat="42.911683" lon="0.449039">
        <ele>1626.7</ele>
        <time>2013-04-23T08:58:06Z</time>
      </trkpt>
      <trkpt lat="42.911773" lon="0.449084">
        <ele>1631.0</ele>
        <time>2013-04-23T08:59:15Z</time>
      </trkpt>
      <trkpt lat="42.911895" lon="0.449127">
        <ele>1638.7</ele>
        <time>2013-04-23T09:00:10Z</time>
      </trkpt>
      <trkpt lat="42.912017" lon="0.449256">
        <ele>1644.5</ele>
        <time>2013-04-23T09:00:52Z</time>
      </trkpt>
      <trkpt lat="42.912091" lon="0.449246">
        <ele>1647.4</ele>
        <time>2013-04-23T09:01:22Z</time>
      </trkpt>
      <trkpt lat="42.912157" lon="0.449288">
        <ele>1651.2</ele>
        <time>2013-04-23T09:01:55Z</time>
      </trkpt>
      <trkpt lat="42.912302" lon="0.449332">
        <ele>1659.4</ele>
        <time>2013-04-23T09:03:10Z</time>
      </trkpt>
      <trkpt lat="42.912483" lon="0.449270">
        <ele>1670.9</ele>
        <time>2013-04-23T09:04:27Z</time>
      </trkpt>
      <trkpt lat="42.912645" lon="0.449271">
        <ele>1680.0</ele>
        <time>2013-04-23T09:05:38Z</time>
      </trkpt>
      <trkpt lat="42.912731" lon="0.449226">
        <ele>1683.4</ele>
        <time>2013-04-23T09:12:12Z</time>
      </trkpt>
      <trkpt lat="42.912834" lon="0.449251">
        <ele>1686.8</ele>
        <time>2013-04-23T09:12:44Z</time>
      </trkpt>
      <trkpt lat="42.912898" lon="0.449106">
        <ele>1690.1</ele>
        <time>2013-04-23T09:13:10Z</time>
      </trkpt>
      <trkpt lat="42.912957" lon="0.449071">
        <ele>1694.9</ele>
        <time>2013-04-23T09:13:34Z</time>
      </trkpt>
      <trkpt lat="42.912964" lon="0.448947">
        <ele>1700.7</ele>
        <time>2013-04-23T09:14:05Z</time>
      </trkpt>
      <trkpt lat="42.913024" lon="0.448895">
        <ele>1705.0</ele>
        <time>2013-04-23T09:14:28Z</time>
      </trkpt>
      <trkpt lat="42.913126" lon="0.448883">
        <ele>1709.8</ele>
        <time>2013-04-23T09:15:01Z</time>
      </trkpt>
      <trkpt lat="42.913193" lon="0.448754">
        <ele>1713.7</ele>
        <time>2013-04-23T09:15:21Z</time>
      </trkpt>
      <trkpt lat="42.913255" lon="0.448656">
        <ele>1717.5</ele>
        <time>2013-04-23T09:15:42Z</time>
      </trkpt>
      <trkpt lat="42.913330" lon="0.448630">
        <ele>1719.9</ele>
        <time>2013-04-23T09:15:58Z</time>
      </trkpt>
      <trkpt lat="42.913404" lon="0.448572">
        <ele>1722.3</ele>
        <time>2013-04-23T09:16:34Z</time>
      </trkpt>
      <trkpt lat="42.913495" lon="0.448605">
        <ele>1718.5</ele>
        <time>2013-04-23T09:16:47Z</time>
      </trkpt>
      <trkpt lat="42.913585" lon="0.448612">
        <ele>1722.8</ele>
        <time>2013-04-23T09:17:05Z</time>
      </trkpt>
      <trkpt lat="42.913691" lon="0.448606">
        <ele>1723.8</ele>
        <time>2013-04-23T09:17:25Z</time>
      </trkpt>
      <trkpt lat="42.913790" lon="0.448635">
        <ele>1725.2</ele>
        <time>2013-04-23T09:17:39Z</time>
      </trkpt>
      <trkpt lat="42.913867" lon="0.448638">
        <ele>1725.7</ele>
        <time>2013-04-23T09:17:50Z</time>
      </trkpt>
      <trkpt lat="42.913935" lon="0.448620">
        <ele>1726.7</ele>
        <time>2013-04-23T09:18:08Z</time>
      </trkpt>
      <trkpt lat="42.914013" lon="0.448537">
        <ele>1727.6</ele>
        <time>2013-04-23T09:18:24Z</time>
      </trkpt>
      <trkpt lat="42.914103" lon="0.448578">
        <ele>1728.1</ele>
        <time>2013-04-23T09:18:36Z</time>
      </trkpt>
      <trkpt lat="42.914182" lon="0.448564">
        <ele>1729.1</ele>
        <time>2013-04-23T09:18:49Z</time>
      </trkpt>
      <trkpt lat="42.914213" lon="0.448418">
        <ele>1729.6</ele>
        <time>2013-04-23T09:19:05Z</time>
      </trkpt>
      <trkpt lat="42.914308" lon="0.448398">
        <ele>1730.0</ele>
        <time>2013-04-23T09:19:22Z</time>
      </trkpt>
      <trkpt lat="42.914424" lon="0.448466">
        <ele>1730.0</ele>
        <time>2013-04-23T09:19:39Z</time>
      </trkpt>
      <trkpt lat="42.914538" lon="0.448423">
        <ele>1731.9</ele>
        <time>2013-04-23T09:20:01Z</time>
      </trkpt>
      <trkpt lat="42.914636" lon="0.448423">
        <ele>1732.9</ele>
        <time>2013-04-23T09:20:15Z</time>
      </trkpt>
      <trkpt lat="42.914701" lon="0.448343">
        <ele>1733.9</ele>
        <time>2013-04-23T09:20:32Z</time>
      </trkpt>
      <trkpt lat="42.914775" lon="0.448430">
        <ele>1735.3</ele>
        <time>2013-04-23T09:21:06Z</time>
      </trkpt>
      <trkpt lat="42.914892" lon="0.448506">
        <ele>1737.7</ele>
        <time>2013-04-23T09:21:26Z</time>
      </trkpt>
      <trkpt lat="42.914977" lon="0.448475">
        <ele>1739.6</ele>
        <time>2013-04-23T09:21:47Z</time>
      </trkpt>
      <trkpt lat="42.915058" lon="0.448414">
        <ele>1741.1</ele>
        <time>2013-04-23T09:22:01Z</time>
      </trkpt>
      <trkpt lat="42.915171" lon="0.448443">
        <ele>1742.1</ele>
        <time>2013-04-23T09:22:17Z</time>
      </trkpt>
      <trkpt lat="42.915263" lon="0.448501">
        <ele>1742.5</ele>
        <time>2013-04-23T09:22:32Z</time>
      </trkpt>
      <trkpt lat="42.915355" lon="0.448552">
        <ele>1744.0</ele>
        <time>2013-04-23T09:22:46Z</time>
      </trkpt>
      <trkpt lat="42.915456" lon="0.448573">
        <ele>1745.4</ele>
        <time>2013-04-23T09:23:02Z</time>
      </trkpt>
      <trkpt lat="42.915559" lon="0.448636">
        <ele>1746.4</ele>
        <time>2013-04-23T09:23:19Z</time>
        <name>Cab. de Jezeau</name>
      </trkpt>
      <trkpt lat="42.915628" lon="0.448744">
        <ele>1750.2</ele>
        <time>2013-04-23T09:30:18Z</time>
      </trkpt>
      <trkpt lat="42.915645" lon="0.448766">
        <ele>1751.2</ele>
        <time>2013-04-23T09:33:29Z</time>
      </trkpt>
      <trkpt lat="42.915737" lon="0.448800">
        <ele>1750.7</ele>
        <time>2013-04-23T09:34:11Z</time>
      </trkpt>
      <trkpt lat="42.915823" lon="0.448772">
        <ele>1751.2</ele>
        <time>2013-04-23T09:34:26Z</time>
      </trkpt>
      <trkpt lat="42.915868" lon="0.448720">
        <ele>1753.6</ele>
        <time>2013-04-23T09:34:47Z</time>
      </trkpt>
      <trkpt lat="42.915940" lon="0.448669">
        <ele>1755.0</ele>
        <time>2013-04-23T09:35:04Z</time>
      </trkpt>
      <trkpt lat="42.916018" lon="0.448639">
        <ele>1756.0</ele>
        <time>2013-04-23T09:35:19Z</time>
      </trkpt>
      <trkpt lat="42.916109" lon="0.448637">
        <ele>1756.5</ele>
        <time>2013-04-23T09:35:36Z</time>
      </trkpt>
      <trkpt lat="42.916199" lon="0.448623">
        <ele>1757.9</ele>
        <time>2013-04-23T09:35:53Z</time>
      </trkpt>
      <trkpt lat="42.916395" lon="0.448663">
        <ele>1783.9</ele>
        <time>2013-04-23T10:21:50Z</time>
      </trkpt>
      <trkpt lat="42.916550" lon="0.448788">
        <ele>1787.2</ele>
        <time>2013-04-23T10:22:02Z</time>
      </trkpt>
      <trkpt lat="42.916804" lon="0.448809">
        <ele>1795.7</ele>
        <time>2013-04-23T10:23:43Z</time>
      </trkpt>
      <trkpt lat="42.916910" lon="0.448809">
        <ele>1799.5</ele>
        <time>2013-04-23T10:23:57Z</time>
      </trkpt>
      <trkpt lat="42.917031" lon="0.448932">
        <ele>1802.4</ele>
        <time>2013-04-23T10:24:10Z</time>
      </trkpt>
      <trkpt lat="42.917183" lon="0.449001">
        <ele>1778.6</ele>
        <time>2013-04-23T10:24:24Z</time>
      </trkpt>
      <trkpt lat="42.917239" lon="0.449100">
        <ele>1780.0</ele>
        <time>2013-04-23T10:24:38Z</time>
      </trkpt>
      <trkpt lat="42.917307" lon="0.449192">
        <ele>1781.5</ele>
        <time>2013-04-23T10:24:54Z</time>
      </trkpt>
      <trkpt lat="42.917360" lon="0.449289">
        <ele>1783.4</ele>
        <time>2013-04-23T10:25:15Z</time>
      </trkpt>
      <trkpt lat="42.917370" lon="0.449407">
        <ele>1786.3</ele>
        <time>2013-04-23T10:25:31Z</time>
      </trkpt>
      <trkpt lat="42.917395" lon="0.449527">
        <ele>1788.7</ele>
        <time>2013-04-23T10:25:47Z</time>
      </trkpt>
      <trkpt lat="42.917419" lon="0.449644">
        <ele>1791.6</ele>
        <time>2013-04-23T10:26:03Z</time>
      </trkpt>
      <trkpt lat="42.917448" lon="0.449762">
        <ele>1794.0</ele>
        <time>2013-04-23T10:26:20Z</time>
      </trkpt>
      <trkpt lat="42.917463" lon="0.449880">
        <ele>1796.8</ele>
        <time>2013-04-23T10:26:36Z</time>
      </trkpt>
      <trkpt lat="42.917470" lon="0.450008">
        <ele>1798.8</ele>
        <time>2013-04-23T10:26:51Z</time>
      </trkpt>
      <trkpt lat="42.917469" lon="0.450118">
        <ele>1800.2</ele>
        <time>2013-04-23T10:27:05Z</time>
      </trkpt>
      <trkpt lat="42.917468" lon="0.450254">
        <ele>1802.6</ele>
        <time>2013-04-23T10:27:22Z</time>
      </trkpt>
      <trkpt lat="42.917470" lon="0.450356">
        <ele>1805.0</ele>
        <time>2013-04-23T10:27:37Z</time>
      </trkpt>
      <trkpt lat="42.917417" lon="0.450454">
        <ele>1805.5</ele>
        <time>2013-04-23T10:27:49Z</time>
      </trkpt>
      <trkpt lat="42.917387" lon="0.450573">
        <ele>1805.5</ele>
        <time>2013-04-23T10:28:00Z</time>
      </trkpt>
      <trkpt lat="42.917371" lon="0.450687">
        <ele>1805.0</ele>
        <time>2013-04-23T10:28:12Z</time>
      </trkpt>
      <trkpt lat="42.917364" lon="0.450800">
        <ele>1806.0</ele>
        <time>2013-04-23T10:30:35Z</time>
      </trkpt>
      <trkpt lat="42.917357" lon="0.450936">
        <ele>1806.9</ele>
        <time>2013-04-23T10:30:48Z</time>
      </trkpt>
      <trkpt lat="42.917373" lon="0.451071">
        <ele>1807.9</ele>
        <time>2013-04-23T10:31:01Z</time>
      </trkpt>
      <trkpt lat="42.917359" lon="0.451166">
        <ele>1808.9</ele>
        <time>2013-04-23T10:31:17Z</time>
      </trkpt>
      <trkpt lat="42.917377" lon="0.451272">
        <ele>1809.8</ele>
        <time>2013-04-23T10:32:02Z</time>
      </trkpt>
      <trkpt lat="42.917396" lon="0.451390">
        <ele>1812.2</ele>
        <time>2013-04-23T10:32:17Z</time>
      </trkpt>
      <trkpt lat="42.917407" lon="0.451520">
        <ele>1815.1</ele>
        <time>2013-04-23T10:32:33Z</time>
      </trkpt>
      <trkpt lat="42.917376" lon="0.451681">
        <ele>1817.5</ele>
        <time>2013-04-23T10:32:51Z</time>
      </trkpt>
      <trkpt lat="42.917397" lon="0.451781">
        <ele>1821.3</ele>
        <time>2013-04-23T10:33:09Z</time>
      </trkpt>
      <trkpt lat="42.917428" lon="0.451939">
        <ele>1823.8</ele>
        <time>2013-04-23T10:33:26Z</time>
      </trkpt>
      <trkpt lat="42.917467" lon="0.451912">
        <ele>1826.6</ele>
        <time>2013-04-23T10:34:41Z</time>
      </trkpt>
      <trkpt lat="42.917504" lon="0.451983">
        <ele>1826.2</ele>
        <time>2013-04-23T10:37:29Z</time>
      </trkpt>
      <trkpt lat="42.917574" lon="0.452066">
        <ele>1828.6</ele>
        <time>2013-04-23T10:37:58Z</time>
      </trkpt>
      <trkpt lat="42.917626" lon="0.452136">
        <ele>1831.4</ele>
        <time>2013-04-23T10:38:13Z</time>
      </trkpt>
      <trkpt lat="42.917658" lon="0.452230">
        <ele>1832.4</ele>
        <time>2013-04-23T10:38:36Z</time>
      </trkpt>
      <trkpt lat="42.917699" lon="0.452334">
        <ele>1833.8</ele>
        <time>2013-04-23T10:38:51Z</time>
      </trkpt>
      <trkpt lat="42.917725" lon="0.452462">
        <ele>1835.3</ele>
        <time>2013-04-23T10:39:08Z</time>
      </trkpt>
      <trkpt lat="42.917749" lon="0.452578">
        <ele>1836.3</ele>
        <time>2013-04-23T10:39:23Z</time>
      </trkpt>
      <trkpt lat="42.917758" lon="0.452684">
        <ele>1837.7</ele>
        <time>2013-04-23T10:39:44Z</time>
      </trkpt>
      <trkpt lat="42.917775" lon="0.452806">
        <ele>1838.7</ele>
        <time>2013-04-23T10:40:07Z</time>
      </trkpt>
      <trkpt lat="42.917811" lon="0.452916">
        <ele>1840.6</ele>
        <time>2013-04-23T10:40:26Z</time>
      </trkpt>
      <trkpt lat="42.917879" lon="0.452930">
        <ele>1843.5</ele>
        <time>2013-04-23T10:41:21Z</time>
      </trkpt>
      <trkpt lat="42.917968" lon="0.453019">
        <ele>1847.3</ele>
        <time>2013-04-23T10:41:40Z</time>
      </trkpt>
      <trkpt lat="42.918015" lon="0.453139">
        <ele>1851.6</ele>
        <time>2013-04-23T10:42:44Z</time>
      </trkpt>
      <trkpt lat="42.918069" lon="0.453233">
        <ele>1855.5</ele>
        <time>2013-04-23T10:43:08Z</time>
      </trkpt>
      <trkpt lat="42.918082" lon="0.453354">
        <ele>1858.8</ele>
        <time>2013-04-23T10:43:24Z</time>
      </trkpt>
      <trkpt lat="42.918088" lon="0.453480">
        <ele>1863.2</ele>
        <time>2013-04-23T10:43:42Z</time>
      </trkpt>
      <trkpt lat="42.918099" lon="0.453613">
        <ele>1866.1</ele>
        <time>2013-04-23T10:43:58Z</time>
      </trkpt>
      <trkpt lat="42.918082" lon="0.453740">
        <ele>1868.9</ele>
        <time>2013-04-23T10:44:14Z</time>
      </trkpt>
      <trkpt lat="42.918062" lon="0.453847">
        <ele>1871.8</ele>
        <time>2013-04-23T10:44:31Z</time>
      </trkpt>
      <trkpt lat="42.918051" lon="0.453962">
        <ele>1874.7</ele>
        <time>2013-04-23T10:44:48Z</time>
      </trkpt>
      <trkpt lat="42.918046" lon="0.454087">
        <ele>1878.6</ele>
        <time>2013-04-23T10:45:09Z</time>
      </trkpt>
      <trkpt lat="42.918033" lon="0.454237">
        <ele>1881.4</ele>
        <time>2013-04-23T10:45:30Z</time>
      </trkpt>
      <trkpt lat="42.918017" lon="0.454355">
        <ele>1884.3</ele>
        <time>2013-04-23T10:45:58Z</time>
      </trkpt>
      <trkpt lat="42.918007" lon="0.454430">
        <ele>1887.2</ele>
        <time>2013-04-23T10:46:15Z</time>
      </trkpt>
      <trkpt lat="42.917998" lon="0.454536">
        <ele>1889.1</ele>
        <time>2013-04-23T10:46:31Z</time>
      </trkpt>
      <trkpt lat="42.918015" lon="0.454624">
        <ele>1891.5</ele>
        <time>2013-04-23T10:46:48Z</time>
      </trkpt>
      <trkpt lat="42.917996" lon="0.454754">
        <ele>1893.9</ele>
        <time>2013-04-23T10:47:07Z</time>
      </trkpt>
      <trkpt lat="42.917949" lon="0.454867">
        <ele>1894.4</ele>
        <time>2013-04-23T10:47:23Z</time>
      </trkpt>
      <trkpt lat="42.917920" lon="0.454964">
        <ele>1896.3</ele>
        <time>2013-04-23T10:47:39Z</time>
      </trkpt>
      <trkpt lat="42.917879" lon="0.455087">
        <ele>1897.3</ele>
        <time>2013-04-23T10:47:55Z</time>
      </trkpt>
      <trkpt lat="42.917837" lon="0.455207">
        <ele>1898.7</ele>
        <time>2013-04-23T10:48:10Z</time>
      </trkpt>
      <trkpt lat="42.917790" lon="0.455341">
        <ele>1899.7</ele>
        <time>2013-04-23T10:48:38Z</time>
      </trkpt>
      <trkpt lat="42.917755" lon="0.455461">
        <ele>1902.1</ele>
        <time>2013-04-23T10:48:53Z</time>
      </trkpt>
      <trkpt lat="42.917718" lon="0.455569">
        <ele>1904.5</ele>
        <time>2013-04-23T10:49:12Z</time>
      </trkpt>
      <trkpt lat="42.917682" lon="0.455656">
        <ele>1906.4</ele>
        <time>2013-04-23T10:49:35Z</time>
      </trkpt>
      <trkpt lat="42.917655" lon="0.455751">
        <ele>1909.8</ele>
        <time>2013-04-23T10:49:55Z</time>
      </trkpt>
      <trkpt lat="42.917654" lon="0.455882">
        <ele>1910.8</ele>
        <time>2013-04-23T10:50:20Z</time>
      </trkpt>
      <trkpt lat="42.917643" lon="0.455984">
        <ele>1913.6</ele>
        <time>2013-04-23T10:51:05Z</time>
      </trkpt>
      <trkpt lat="42.917630" lon="0.456094">
        <ele>1916.0</ele>
        <time>2013-04-23T10:51:23Z</time>
      </trkpt>
      <trkpt lat="42.917615" lon="0.456207">
        <ele>1918.0</ele>
        <time>2013-04-23T10:51:40Z</time>
      </trkpt>
      <trkpt lat="42.917557" lon="0.456309">
        <ele>1920.4</ele>
        <time>2013-04-23T10:51:53Z</time>
      </trkpt>
      <trkpt lat="42.917485" lon="0.456394">
        <ele>1922.3</ele>
        <time>2013-04-23T10:52:08Z</time>
      </trkpt>
      <trkpt lat="42.917444" lon="0.456441">
        <ele>1924.2</ele>
        <time>2013-04-23T10:53:25Z</time>
        <name>Col 1930m</name>
      </trkpt>
      <trkpt lat="42.917354" lon="0.456519">
        <ele>1927.1</ele>
        <time>2013-04-23T10:53:45Z</time>
      </trkpt>
      <trkpt lat="42.917283" lon="0.456566">
        <ele>1928.5</ele>
        <time>2013-04-23T10:54:05Z</time>
      </trkpt>
      <trkpt lat="42.917211" lon="0.456660">
        <ele>1933.8</ele>
        <time>2013-04-23T10:54:30Z</time>
      </trkpt>
      <trkpt lat="42.917134" lon="0.456739">
        <ele>1937.7</ele>
        <time>2013-04-23T10:55:09Z</time>
      </trkpt>
      <trkpt lat="42.917068" lon="0.456798">
        <ele>1940.6</ele>
        <time>2013-04-23T10:55:32Z</time>
      </trkpt>
      <trkpt lat="42.916989" lon="0.456876">
        <ele>1943.9</ele>
        <time>2013-04-23T10:55:55Z</time>
      </trkpt>
      <trkpt lat="42.916936" lon="0.456943">
        <ele>1947.8</ele>
        <time>2013-04-23T10:56:17Z</time>
      </trkpt>
      <trkpt lat="42.916876" lon="0.457017">
        <ele>1951.6</ele>
        <time>2013-04-23T10:56:46Z</time>
      </trkpt>
      <trkpt lat="42.916802" lon="0.457074">
        <ele>1955.0</ele>
        <time>2013-04-23T10:57:10Z</time>
      </trkpt>
      <trkpt lat="42.916769" lon="0.457121">
        <ele>1957.9</ele>
        <time>2013-04-23T10:57:40Z</time>
      </trkpt>
      <trkpt lat="42.916673" lon="0.457087">
        <ele>1961.7</ele>
        <time>2013-04-23T10:58:05Z</time>
      </trkpt>
      <trkpt lat="42.916593" lon="0.457032">
        <ele>1963.6</ele>
        <time>2013-04-23T10:58:22Z</time>
      </trkpt>
      <trkpt lat="42.916505" lon="0.456992">
        <ele>1965.6</ele>
        <time>2013-04-23T10:58:39Z</time>
      </trkpt>
      <trkpt lat="42.916426" lon="0.456933">
        <ele>1965.6</ele>
        <time>2013-04-23T10:58:53Z</time>
      </trkpt>
      <trkpt lat="42.916336" lon="0.456974">
        <ele>1968.9</ele>
        <time>2013-04-23T10:59:30Z</time>
      </trkpt>
      <trkpt lat="42.916253" lon="0.457007">
        <ele>1970.4</ele>
        <time>2013-04-23T10:59:43Z</time>
      </trkpt>
      <trkpt lat="42.916179" lon="0.457085">
        <ele>1972.3</ele>
        <time>2013-04-23T10:59:58Z</time>
      </trkpt>
      <trkpt lat="42.916105" lon="0.457201">
        <ele>1976.1</ele>
        <time>2013-04-23T11:00:16Z</time>
      </trkpt>
      <trkpt lat="42.916038" lon="0.457291">
        <ele>1979.0</ele>
        <time>2013-04-23T11:00:38Z</time>
      </trkpt>
      <trkpt lat="42.915966" lon="0.457348">
        <ele>1981.9</ele>
        <time>2013-04-23T11:00:57Z</time>
      </trkpt>
      <trkpt lat="42.915907" lon="0.457406">
        <ele>1983.8</ele>
        <time>2013-04-23T11:01:14Z</time>
      </trkpt>
      <trkpt lat="42.915859" lon="0.457491">
        <ele>1986.7</ele>
        <time>2013-04-23T11:01:33Z</time>
      </trkpt>
      <trkpt lat="42.915793" lon="0.457563">
        <ele>1989.1</ele>
        <time>2013-04-23T11:01:55Z</time>
      </trkpt>
      <trkpt lat="42.915721" lon="0.457658">
        <ele>1991.5</ele>
        <time>2013-04-23T11:02:17Z</time>
      </trkpt>
      <trkpt lat="42.915653" lon="0.457741">
        <ele>1994.9</ele>
        <time>2013-04-23T11:02:41Z</time>
      </trkpt>
      <trkpt lat="42.915612" lon="0.457781">
        <ele>1998.2</ele>
        <time>2013-04-23T11:03:50Z</time>
      </trkpt>
      <trkpt lat="42.915527" lon="0.457875">
        <ele>2001.6</ele>
        <time>2013-04-23T11:04:11Z</time>
      </trkpt>
      <trkpt lat="42.915446" lon="0.457923">
        <ele>2005.4</ele>
        <time>2013-04-23T11:04:34Z</time>
      </trkpt>
      <trkpt lat="42.915369" lon="0.458056">
        <ele>2013.6</ele>
        <time>2013-04-23T11:05:33Z</time>
      </trkpt>
      <trkpt lat="42.915374" lon="0.458178">
        <ele>2018.4</ele>
        <time>2013-04-23T11:05:53Z</time>
      </trkpt>
      <trkpt lat="42.915322" lon="0.458278">
        <ele>2023.2</ele>
        <time>2013-04-23T11:06:31Z</time>
      </trkpt>
      <trkpt lat="42.915326" lon="0.458354">
        <ele>2027.1</ele>
        <time>2013-04-23T11:06:54Z</time>
      </trkpt>
      <trkpt lat="42.915287" lon="0.458426">
        <ele>2030.0</ele>
        <time>2013-04-23T11:07:16Z</time>
      </trkpt>
      <trkpt lat="42.915171" lon="0.458420">
        <ele>2034.8</ele>
        <time>2013-04-23T11:07:45Z</time>
      </trkpt>
      <trkpt lat="42.915092" lon="0.458476">
        <ele>2038.6</ele>
        <time>2013-04-23T11:08:08Z</time>
      </trkpt>
      <trkpt lat="42.915024" lon="0.458541">
        <ele>2042.9</ele>
        <time>2013-04-23T11:08:30Z</time>
      </trkpt>
      <trkpt lat="42.914978" lon="0.458650">
        <ele>2049.2</ele>
        <time>2013-04-23T11:09:02Z</time>
      </trkpt>
      <trkpt lat="42.914913" lon="0.458804">
        <ele>2055.4</ele>
        <time>2013-04-23T11:09:41Z</time>
      </trkpt>
      <trkpt lat="42.914881" lon="0.458936">
        <ele>2061.2</ele>
        <time>2013-04-23T11:10:09Z</time>
      </trkpt>
      <trkpt lat="42.914854" lon="0.458923">
        <ele>2062.2</ele>
        <time>2013-04-23T11:12:49Z</time>
      </trkpt>
      <trkpt lat="42.914816" lon="0.459040">
        <ele>2065.1</ele>
        <time>2013-04-23T11:14:58Z</time>
      </trkpt>
      <trkpt lat="42.914766" lon="0.459129">
        <ele>2069.4</ele>
        <time>2013-04-23T11:15:25Z</time>
      </trkpt>
      <trkpt lat="42.914718" lon="0.459237">
        <ele>2073.2</ele>
        <time>2013-04-23T11:15:52Z</time>
      </trkpt>
      <trkpt lat="42.914756" lon="0.459315">
        <ele>2077.1</ele>
        <time>2013-04-23T11:16:16Z</time>
      </trkpt>
      <trkpt lat="42.914737" lon="0.459425">
        <ele>2081.9</ele>
        <time>2013-04-23T11:16:59Z</time>
      </trkpt>
      <trkpt lat="42.914702" lon="0.459531">
        <ele>2083.8</ele>
        <time>2013-04-23T11:17:25Z</time>
      </trkpt>
      <trkpt lat="42.914690" lon="0.459587">
        <ele>2082.8</ele>
        <time>2013-04-23T11:18:40Z</time>
        <name>Montagne d Areng</name>
      </trkpt>
      <trkpt lat="42.914674" lon="0.459610">
        <ele>2079.5</ele>
        <time>2013-04-23T12:12:48Z</time>
      </trkpt>
      <trkpt lat="42.914583" lon="0.459647">
        <ele>2078.5</ele>
        <time>2013-04-23T12:12:57Z</time>
      </trkpt>
      <trkpt lat="42.914492" lon="0.459649">
        <ele>2075.1</ele>
        <time>2013-04-23T12:13:06Z</time>
      </trkpt>
      <trkpt lat="42.914403" lon="0.459644">
        <ele>2070.3</ele>
        <time>2013-04-23T12:13:17Z</time>
      </trkpt>
      <trkpt lat="42.914339" lon="0.459555">
        <ele>2067.9</ele>
        <time>2013-04-23T12:13:29Z</time>
      </trkpt>
      <trkpt lat="42.914260" lon="0.459514">
        <ele>2064.1</ele>
        <time>2013-04-23T12:13:40Z</time>
      </trkpt>
      <trkpt lat="42.914187" lon="0.459495">
        <ele>2061.7</ele>
        <time>2013-04-23T12:14:22Z</time>
      </trkpt>
      <trkpt lat="42.914099" lon="0.459485">
        <ele>2057.8</ele>
        <time>2013-04-23T12:14:30Z</time>
      </trkpt>
      <trkpt lat="42.914002" lon="0.459482">
        <ele>2054.0</ele>
        <time>2013-04-23T12:14:40Z</time>
      </trkpt>
      <trkpt lat="42.913934" lon="0.459424">
        <ele>2049.7</ele>
        <time>2013-04-23T12:15:12Z</time>
      </trkpt>
      <trkpt lat="42.913851" lon="0.459377">
        <ele>2045.3</ele>
        <time>2013-04-23T12:15:19Z</time>
      </trkpt>
      <trkpt lat="42.913757" lon="0.459337">
        <ele>2040.5</ele>
        <time>2013-04-23T12:15:26Z</time>
      </trkpt>
      <trkpt lat="42.913665" lon="0.459286">
        <ele>2036.2</ele>
        <time>2013-04-23T12:15:33Z</time>
      </trkpt>
      <trkpt lat="42.913580" lon="0.459241">
        <ele>2030.9</ele>
        <time>2013-04-23T12:15:40Z</time>
      </trkpt>
      <trkpt lat="42.913479" lon="0.459212">
        <ele>2025.6</ele>
        <time>2013-04-23T12:15:50Z</time>
      </trkpt>
      <trkpt lat="42.913386" lon="0.459194">
        <ele>2020.8</ele>
        <time>2013-04-23T12:16:00Z</time>
      </trkpt>
      <trkpt lat="42.913297" lon="0.459202">
        <ele>2017.0</ele>
        <time>2013-04-23T12:16:11Z</time>
      </trkpt>
      <trkpt lat="42.913205" lon="0.459201">
        <ele>2012.7</ele>
        <time>2013-04-23T12:16:22Z</time>
      </trkpt>
      <trkpt lat="42.913115" lon="0.459180">
        <ele>2007.4</ele>
        <time>2013-04-23T12:16:31Z</time>
      </trkpt>
      <trkpt lat="42.913014" lon="0.459188">
        <ele>2002.1</ele>
        <time>2013-04-23T12:16:40Z</time>
      </trkpt>
      <trkpt lat="42.912909" lon="0.459173">
        <ele>1997.8</ele>
        <time>2013-04-23T12:16:50Z</time>
      </trkpt>
      <trkpt lat="42.912815" lon="0.459170">
        <ele>1992.9</ele>
        <time>2013-04-23T12:17:01Z</time>
      </trkpt>
      <trkpt lat="42.912731" lon="0.459154">
        <ele>1989.1</ele>
        <time>2013-04-23T12:17:11Z</time>
      </trkpt>
      <trkpt lat="42.912637" lon="0.459143">
        <ele>1985.3</ele>
        <time>2013-04-23T12:17:22Z</time>
      </trkpt>
      <trkpt lat="42.912606" lon="0.459104">
        <ele>1983.8</ele>
        <time>2013-04-23T12:19:00Z</time>
      </trkpt>
      <trkpt lat="42.912544" lon="0.459091">
        <ele>1981.9</ele>
        <time>2013-04-23T12:21:14Z</time>
      </trkpt>
      <trkpt lat="42.912441" lon="0.459048">
        <ele>1978.1</ele>
        <time>2013-04-23T12:21:24Z</time>
      </trkpt>
      <trkpt lat="42.912363" lon="0.458991">
        <ele>1974.7</ele>
        <time>2013-04-23T12:21:33Z</time>
      </trkpt>
      <trkpt lat="42.912276" lon="0.458926">
        <ele>1972.3</ele>
        <time>2013-04-23T12:21:43Z</time>
      </trkpt>
      <trkpt lat="42.912186" lon="0.458898">
        <ele>1969.9</ele>
        <time>2013-04-23T12:21:53Z</time>
      </trkpt>
      <trkpt lat="42.912102" lon="0.458841">
        <ele>1967.5</ele>
        <time>2013-04-23T12:22:02Z</time>
      </trkpt>
      <trkpt lat="42.912027" lon="0.458773">
        <ele>1965.1</ele>
        <time>2013-04-23T12:22:11Z</time>
      </trkpt>
      <trkpt lat="42.911945" lon="0.458708">
        <ele>1963.6</ele>
        <time>2013-04-23T12:22:20Z</time>
      </trkpt>
      <trkpt lat="42.911863" lon="0.458650">
        <ele>1962.7</ele>
        <time>2013-04-23T12:22:29Z</time>
      </trkpt>
      <trkpt lat="42.911777" lon="0.458598">
        <ele>1962.2</ele>
        <time>2013-04-23T12:22:38Z</time>
      </trkpt>
      <trkpt lat="42.911688" lon="0.458551">
        <ele>1962.2</ele>
        <time>2013-04-23T12:22:47Z</time>
      </trkpt>
      <trkpt lat="42.911604" lon="0.458492">
        <ele>1962.2</ele>
        <time>2013-04-23T12:22:57Z</time>
      </trkpt>
      <trkpt lat="42.911520" lon="0.458436">
        <ele>1963.2</ele>
        <time>2013-04-23T12:23:07Z</time>
      </trkpt>
      <trkpt lat="42.911446" lon="0.458385">
        <ele>1963.6</ele>
        <time>2013-04-23T12:23:19Z</time>
      </trkpt>
      <trkpt lat="42.911370" lon="0.458348">
        <ele>1964.6</ele>
        <time>2013-04-23T12:24:01Z</time>
      </trkpt>
      <trkpt lat="42.911286" lon="0.458292">
        <ele>1966.0</ele>
        <time>2013-04-23T12:24:10Z</time>
      </trkpt>
      <trkpt lat="42.911199" lon="0.458244">
        <ele>1967.0</ele>
        <time>2013-04-23T12:24:20Z</time>
      </trkpt>
      <trkpt lat="42.911106" lon="0.458196">
        <ele>1968.0</ele>
        <time>2013-04-23T12:24:29Z</time>
      </trkpt>
      <trkpt lat="42.911022" lon="0.458175">
        <ele>1969.4</ele>
        <time>2013-04-23T12:24:40Z</time>
      </trkpt>
      <trkpt lat="42.910946" lon="0.458114">
        <ele>1970.8</ele>
        <time>2013-04-23T12:24:56Z</time>
      </trkpt>
      <trkpt lat="42.910877" lon="0.458075">
        <ele>1972.8</ele>
        <time>2013-04-23T12:25:19Z</time>
      </trkpt>
      <trkpt lat="42.910802" lon="0.458002">
        <ele>1974.7</ele>
        <time>2013-04-23T12:25:38Z</time>
      </trkpt>
      <trkpt lat="42.910727" lon="0.457947">
        <ele>1975.7</ele>
        <time>2013-04-23T12:25:54Z</time>
      </trkpt>
      <trkpt lat="42.910660" lon="0.457873">
        <ele>1977.6</ele>
        <time>2013-04-23T12:26:09Z</time>
      </trkpt>
      <trkpt lat="42.910600" lon="0.457846">
        <ele>1980.0</ele>
        <time>2013-04-23T12:26:38Z</time>
      </trkpt>
      <trkpt lat="42.910507" lon="0.457791">
        <ele>1981.9</ele>
        <time>2013-04-23T12:26:52Z</time>
      </trkpt>
      <trkpt lat="42.910432" lon="0.457719">
        <ele>1984.3</ele>
        <time>2013-04-23T12:27:09Z</time>
      </trkpt>
      <trkpt lat="42.910351" lon="0.457676">
        <ele>1986.7</ele>
        <time>2013-04-23T12:27:25Z</time>
      </trkpt>
      <trkpt lat="42.910275" lon="0.457617">
        <ele>1988.6</ele>
        <time>2013-04-23T12:27:41Z</time>
      </trkpt>
      <trkpt lat="42.910208" lon="0.457533">
        <ele>1991.5</ele>
        <time>2013-04-23T12:27:58Z</time>
      </trkpt>
      <trkpt lat="42.910130" lon="0.457478">
        <ele>1992.9</ele>
        <time>2013-04-23T12:28:16Z</time>
      </trkpt>
      <trkpt lat="42.910089" lon="0.457492">
        <ele>1992.5</ele>
        <time>2013-04-23T12:30:25Z</time>
      </trkpt>
      <trkpt lat="42.909977" lon="0.457455">
        <ele>1992.0</ele>
        <time>2013-04-23T12:30:35Z</time>
      </trkpt>
      <trkpt lat="42.909890" lon="0.457413">
        <ele>1990.6</ele>
        <time>2013-04-23T12:30:45Z</time>
      </trkpt>
      <trkpt lat="42.909806" lon="0.457383">
        <ele>1989.6</ele>
        <time>2013-04-23T12:30:55Z</time>
      </trkpt>
      <trkpt lat="42.909711" lon="0.457373">
        <ele>1989.1</ele>
        <time>2013-04-23T12:31:05Z</time>
      </trkpt>
      <trkpt lat="42.909613" lon="0.457362">
        <ele>1988.1</ele>
        <time>2013-04-23T12:31:14Z</time>
      </trkpt>
      <trkpt lat="42.909517" lon="0.457353">
        <ele>1986.2</ele>
        <time>2013-04-23T12:31:23Z</time>
      </trkpt>
      <trkpt lat="42.909427" lon="0.457348">
        <ele>1984.8</ele>
        <time>2013-04-23T12:31:32Z</time>
      </trkpt>
      <trkpt lat="42.909335" lon="0.457335">
        <ele>1983.3</ele>
        <time>2013-04-23T12:31:41Z</time>
      </trkpt>
      <trkpt lat="42.909247" lon="0.457320">
        <ele>1983.3</ele>
        <time>2013-04-23T12:31:50Z</time>
      </trkpt>
      <trkpt lat="42.909162" lon="0.457293">
        <ele>1983.8</ele>
        <time>2013-04-23T12:32:01Z</time>
      </trkpt>
      <trkpt lat="42.909062" lon="0.457291">
        <ele>1985.7</ele>
        <time>2013-04-23T12:32:14Z</time>
      </trkpt>
      <trkpt lat="42.908970" lon="0.457249">
        <ele>1988.6</ele>
        <time>2013-04-23T12:32:27Z</time>
      </trkpt>
      <trkpt lat="42.908885" lon="0.457195">
        <ele>1990.1</ele>
        <time>2013-04-23T12:32:41Z</time>
      </trkpt>
      <trkpt lat="42.908797" lon="0.457158">
        <ele>1992.0</ele>
        <time>2013-04-23T12:32:55Z</time>
      </trkpt>
      <trkpt lat="42.908715" lon="0.457115">
        <ele>1994.4</ele>
        <time>2013-04-23T12:33:09Z</time>
      </trkpt>
      <trkpt lat="42.908634" lon="0.457058">
        <ele>1996.3</ele>
        <time>2013-04-23T12:33:24Z</time>
      </trkpt>
      <trkpt lat="42.908547" lon="0.457008">
        <ele>1997.8</ele>
        <time>2013-04-23T12:33:37Z</time>
      </trkpt>
      <trkpt lat="42.908457" lon="0.457029">
        <ele>1998.7</ele>
        <time>2013-04-23T12:33:51Z</time>
      </trkpt>
      <trkpt lat="42.908373" lon="0.457096">
        <ele>2000.6</ele>
        <time>2013-04-23T12:34:06Z</time>
      </trkpt>
      <trkpt lat="42.908318" lon="0.457105">
        <ele>2002.1</ele>
        <time>2013-04-23T12:35:05Z</time>
        <name>Montagne du Pin</name>
      </trkpt>
      <trkpt lat="42.908267" lon="0.457048">
        <ele>2001.6</ele>
        <time>2013-04-23T12:40:25Z</time>
      </trkpt>
      <trkpt lat="42.908206" lon="0.456993">
        <ele>1998.2</ele>
        <time>2013-04-23T12:40:36Z</time>
      </trkpt>
      <trkpt lat="42.908158" lon="0.456879">
        <ele>1996.3</ele>
        <time>2013-04-23T12:40:46Z</time>
      </trkpt>
      <trkpt lat="42.908109" lon="0.456776">
        <ele>1994.9</ele>
        <time>2013-04-23T12:40:55Z</time>
      </trkpt>
      <trkpt lat="42.908058" lon="0.456665">
        <ele>1992.9</ele>
        <time>2013-04-23T12:41:05Z</time>
      </trkpt>
      <trkpt lat="42.908008" lon="0.456547">
        <ele>1991.0</ele>
        <time>2013-04-23T12:41:14Z</time>
      </trkpt>
      <trkpt lat="42.907960" lon="0.456429">
        <ele>1989.1</ele>
        <time>2013-04-23T12:41:27Z</time>
      </trkpt>
      <trkpt lat="42.907903" lon="0.456336">
        <ele>1987.2</ele>
        <time>2013-04-23T12:41:42Z</time>
      </trkpt>
      <trkpt lat="42.907854" lon="0.456231">
        <ele>1985.7</ele>
        <time>2013-04-23T12:41:50Z</time>
      </trkpt>
      <trkpt lat="42.907811" lon="0.456141">
        <ele>1984.3</ele>
        <time>2013-04-23T12:42:57Z</time>
      </trkpt>
      <trkpt lat="42.907771" lon="0.456019">
        <ele>1981.4</ele>
        <time>2013-04-23T12:43:05Z</time>
      </trkpt>
      <trkpt lat="42.907723" lon="0.455893">
        <ele>1979.5</ele>
        <time>2013-04-23T12:43:14Z</time>
      </trkpt>
      <trkpt lat="42.907678" lon="0.455793">
        <ele>1977.1</ele>
        <time>2013-04-23T12:43:22Z</time>
      </trkpt>
      <trkpt lat="42.907632" lon="0.455686">
        <ele>1975.2</ele>
        <time>2013-04-23T12:43:30Z</time>
      </trkpt>
      <trkpt lat="42.907589" lon="0.455562">
        <ele>1972.3</ele>
        <time>2013-04-23T12:43:39Z</time>
      </trkpt>
      <trkpt lat="42.907562" lon="0.455437">
        <ele>1970.4</ele>
        <time>2013-04-23T12:43:48Z</time>
      </trkpt>
      <trkpt lat="42.907526" lon="0.455327">
        <ele>1968.4</ele>
        <time>2013-04-23T12:43:57Z</time>
      </trkpt>
      <trkpt lat="42.907494" lon="0.455211">
        <ele>1965.6</ele>
        <time>2013-04-23T12:44:06Z</time>
      </trkpt>
      <trkpt lat="42.907456" lon="0.455103">
        <ele>1962.7</ele>
        <time>2013-04-23T12:44:14Z</time>
      </trkpt>
      <trkpt lat="42.907420" lon="0.454979">
        <ele>1960.8</ele>
        <time>2013-04-23T12:44:24Z</time>
      </trkpt>
      <trkpt lat="42.907388" lon="0.454871">
        <ele>1958.8</ele>
        <time>2013-04-23T12:44:33Z</time>
      </trkpt>
      <trkpt lat="42.907345" lon="0.454748">
        <ele>1956.4</ele>
        <time>2013-04-23T12:44:42Z</time>
      </trkpt>
      <trkpt lat="42.907310" lon="0.454631">
        <ele>1953.5</ele>
        <time>2013-04-23T12:44:51Z</time>
      </trkpt>
      <trkpt lat="42.907275" lon="0.454519">
        <ele>1950.2</ele>
        <time>2013-04-23T12:45:08Z</time>
      </trkpt>
      <trkpt lat="42.907243" lon="0.454400">
        <ele>1946.8</ele>
        <time>2013-04-23T12:45:16Z</time>
      </trkpt>
      <trkpt lat="42.907204" lon="0.454285">
        <ele>1943.4</ele>
        <time>2013-04-23T12:45:26Z</time>
      </trkpt>
      <trkpt lat="42.907152" lon="0.454179">
        <ele>1940.6</ele>
        <time>2013-04-23T12:45:37Z</time>
      </trkpt>
      <trkpt lat="42.907110" lon="0.454067">
        <ele>1937.2</ele>
        <time>2013-04-23T12:45:48Z</time>
      </trkpt>
      <trkpt lat="42.907059" lon="0.453963">
        <ele>1933.8</ele>
        <time>2013-04-23T12:45:59Z</time>
      </trkpt>
      <trkpt lat="42.907013" lon="0.453853">
        <ele>1931.9</ele>
        <time>2013-04-23T12:46:09Z</time>
      </trkpt>
      <trkpt lat="42.906965" lon="0.453745">
        <ele>1929.0</ele>
        <time>2013-04-23T12:46:18Z</time>
      </trkpt>
      <trkpt lat="42.906926" lon="0.453636">
        <ele>1927.1</ele>
        <time>2013-04-23T12:47:01Z</time>
      </trkpt>
      <trkpt lat="42.906883" lon="0.453526">
        <ele>1924.7</ele>
        <time>2013-04-23T12:47:10Z</time>
      </trkpt>
      <trkpt lat="42.906838" lon="0.453422">
        <ele>1922.8</ele>
        <time>2013-04-23T12:47:37Z</time>
      </trkpt>
      <trkpt lat="42.906813" lon="0.453326">
        <ele>1920.4</ele>
        <time>2013-04-23T12:48:51Z</time>
      </trkpt>
      <trkpt lat="42.906755" lon="0.453241">
        <ele>1918.0</ele>
        <time>2013-04-23T12:49:01Z</time>
      </trkpt>
      <trkpt lat="42.906695" lon="0.453133">
        <ele>1916.5</ele>
        <time>2013-04-23T12:49:12Z</time>
      </trkpt>
      <trkpt lat="42.906639" lon="0.453038">
        <ele>1915.1</ele>
        <time>2013-04-23T12:49:23Z</time>
      </trkpt>
      <trkpt lat="42.906580" lon="0.452935">
        <ele>1913.2</ele>
        <time>2013-04-23T12:49:34Z</time>
      </trkpt>
      <trkpt lat="42.906515" lon="0.452838">
        <ele>1911.2</ele>
        <time>2013-04-23T12:49:45Z</time>
      </trkpt>
      <trkpt lat="42.906445" lon="0.452736">
        <ele>1908.8</ele>
        <time>2013-04-23T12:49:55Z</time>
      </trkpt>
      <trkpt lat="42.906381" lon="0.452637">
        <ele>1905.9</ele>
        <time>2013-04-23T12:50:05Z</time>
      </trkpt>
      <trkpt lat="42.906315" lon="0.452539">
        <ele>1904.0</ele>
        <time>2013-04-23T12:50:15Z</time>
      </trkpt>
      <trkpt lat="42.906254" lon="0.452453">
        <ele>1901.6</ele>
        <time>2013-04-23T12:50:25Z</time>
      </trkpt>
      <trkpt lat="42.906180" lon="0.452374">
        <ele>1899.7</ele>
        <time>2013-04-23T12:50:34Z</time>
      </trkpt>
      <trkpt lat="42.906116" lon="0.452287">
        <ele>1897.8</ele>
        <time>2013-04-23T12:50:43Z</time>
      </trkpt>
      <trkpt lat="42.906063" lon="0.452186">
        <ele>1895.9</ele>
        <time>2013-04-23T12:50:52Z</time>
      </trkpt>
      <trkpt lat="42.906005" lon="0.452087">
        <ele>1893.4</ele>
        <time>2013-04-23T12:51:01Z</time>
      </trkpt>
      <trkpt lat="42.905934" lon="0.451992">
        <ele>1890.6</ele>
        <time>2013-04-23T12:51:11Z</time>
      </trkpt>
      <trkpt lat="42.905864" lon="0.451905">
        <ele>1889.1</ele>
        <time>2013-04-23T12:51:21Z</time>
      </trkpt>
      <trkpt lat="42.905799" lon="0.451818">
        <ele>1887.2</ele>
        <time>2013-04-23T12:51:31Z</time>
      </trkpt>
      <trkpt lat="42.905726" lon="0.451732">
        <ele>1884.3</ele>
        <time>2013-04-23T12:51:40Z</time>
      </trkpt>
      <trkpt lat="42.905677" lon="0.451630">
        <ele>1881.9</ele>
        <time>2013-04-23T12:51:50Z</time>
      </trkpt>
      <trkpt lat="42.905604" lon="0.451554">
        <ele>1880.5</ele>
        <time>2013-04-23T12:51:59Z</time>
      </trkpt>
      <trkpt lat="42.905529" lon="0.451479">
        <ele>1879.0</ele>
        <time>2013-04-23T12:52:08Z</time>
      </trkpt>
      <trkpt lat="42.905453" lon="0.451401">
        <ele>1876.2</ele>
        <time>2013-04-23T12:52:17Z</time>
      </trkpt>
      <trkpt lat="42.905375" lon="0.451325">
        <ele>1876.2</ele>
        <time>2013-04-23T12:52:26Z</time>
      </trkpt>
      <trkpt lat="42.905303" lon="0.451236">
        <ele>1873.3</ele>
        <time>2013-04-23T12:52:35Z</time>
      </trkpt>
      <trkpt lat="42.905225" lon="0.451141">
        <ele>1870.4</ele>
        <time>2013-04-23T12:52:44Z</time>
      </trkpt>
      <trkpt lat="42.905165" lon="0.451042">
        <ele>1868.9</ele>
        <time>2013-04-23T12:52:53Z</time>
      </trkpt>
      <trkpt lat="42.905096" lon="0.450948">
        <ele>1867.0</ele>
        <time>2013-04-23T12:53:03Z</time>
      </trkpt>
      <trkpt lat="42.905047" lon="0.450836">
        <ele>1865.1</ele>
        <time>2013-04-23T12:53:13Z</time>
      </trkpt>
      <trkpt lat="42.905025" lon="0.450718">
        <ele>1861.2</ele>
        <time>2013-04-23T12:53:23Z</time>
      </trkpt>
      <trkpt lat="42.905001" lon="0.450602">
        <ele>1857.9</ele>
        <time>2013-04-23T12:53:34Z</time>
      </trkpt>
      <trkpt lat="42.904939" lon="0.450501">
        <ele>1855.5</ele>
        <time>2013-04-23T12:53:48Z</time>
      </trkpt>
      <trkpt lat="42.904888" lon="0.450389">
        <ele>1853.6</ele>
        <time>2013-04-23T12:53:59Z</time>
      </trkpt>
      <trkpt lat="42.904831" lon="0.450281">
        <ele>1851.2</ele>
        <time>2013-04-23T12:54:09Z</time>
      </trkpt>
      <trkpt lat="42.904791" lon="0.450170">
        <ele>1847.8</ele>
        <time>2013-04-23T12:54:19Z</time>
      </trkpt>
      <trkpt lat="42.904752" lon="0.450041">
        <ele>1843.5</ele>
        <time>2013-04-23T12:54:30Z</time>
      </trkpt>
      <trkpt lat="42.904730" lon="0.449913">
        <ele>1840.1</ele>
        <time>2013-04-23T12:54:40Z</time>
      </trkpt>
      <trkpt lat="42.904693" lon="0.449796">
        <ele>1836.7</ele>
        <time>2013-04-23T12:54:49Z</time>
      </trkpt>
      <trkpt lat="42.904652" lon="0.449677">
        <ele>1834.3</ele>
        <time>2013-04-23T12:54:59Z</time>
      </trkpt>
      <trkpt lat="42.904619" lon="0.449551">
        <ele>1831.4</ele>
        <time>2013-04-23T12:55:08Z</time>
      </trkpt>
      <trkpt lat="42.904576" lon="0.449423">
        <ele>1829.5</ele>
        <time>2013-04-23T12:55:18Z</time>
      </trkpt>
      <trkpt lat="42.904537" lon="0.449302">
        <ele>1828.1</ele>
        <time>2013-04-23T12:55:28Z</time>
      </trkpt>
      <trkpt lat="42.904502" lon="0.449174">
        <ele>1825.2</ele>
        <time>2013-04-23T12:55:37Z</time>
      </trkpt>
      <trkpt lat="42.904479" lon="0.449045">
        <ele>1824.2</ele>
        <time>2013-04-23T12:55:48Z</time>
      </trkpt>
      <trkpt lat="42.904458" lon="0.448903">
        <ele>1823.8</ele>
        <time>2013-04-23T12:55:58Z</time>
      </trkpt>
      <trkpt lat="42.904434" lon="0.448770">
        <ele>1821.8</ele>
        <time>2013-04-23T12:56:09Z</time>
      </trkpt>
      <trkpt lat="42.904410" lon="0.448643">
        <ele>1819.9</ele>
        <time>2013-04-23T12:56:20Z</time>
      </trkpt>
      <trkpt lat="42.904360" lon="0.448539">
        <ele>1818.0</ele>
        <time>2013-04-23T12:56:31Z</time>
      </trkpt>
      <trkpt lat="42.904317" lon="0.448429">
        <ele>1813.7</ele>
        <time>2013-04-23T12:56:43Z</time>
      </trkpt>
      <trkpt lat="42.904274" lon="0.448316">
        <ele>1809.3</ele>
        <time>2013-04-23T12:56:54Z</time>
      </trkpt>
      <trkpt lat="42.904233" lon="0.448206">
        <ele>1805.0</ele>
        <time>2013-04-23T12:57:05Z</time>
      </trkpt>
      <trkpt lat="42.904211" lon="0.448090">
        <ele>1801.2</ele>
        <time>2013-04-23T12:57:16Z</time>
      </trkpt>
      <trkpt lat="42.904193" lon="0.447961">
        <ele>1796.8</ele>
        <time>2013-04-23T12:57:27Z</time>
      </trkpt>
      <trkpt lat="42.904162" lon="0.447855">
        <ele>1793.0</ele>
        <time>2013-04-23T12:57:37Z</time>
      </trkpt>
      <trkpt lat="42.904127" lon="0.447740">
        <ele>1789.2</ele>
        <time>2013-04-23T12:57:48Z</time>
      </trkpt>
      <trkpt lat="42.904091" lon="0.447610">
        <ele>1784.8</ele>
        <time>2013-04-23T12:58:00Z</time>
      </trkpt>
      <trkpt lat="42.904046" lon="0.447503">
        <ele>1781.5</ele>
        <time>2013-04-23T12:58:11Z</time>
      </trkpt>
      <trkpt lat="42.904002" lon="0.447384">
        <ele>1778.1</ele>
        <time>2013-04-23T12:58:22Z</time>
      </trkpt>
      <trkpt lat="42.903970" lon="0.447265">
        <ele>1773.8</ele>
        <time>2013-04-23T12:58:32Z</time>
      </trkpt>
      <trkpt lat="42.903945" lon="0.447140">
        <ele>1770.4</ele>
        <time>2013-04-23T12:58:42Z</time>
      </trkpt>
      <trkpt lat="42.903914" lon="0.447018">
        <ele>1766.6</ele>
        <time>2013-04-23T12:58:52Z</time>
      </trkpt>
      <trkpt lat="42.903877" lon="0.446896">
        <ele>1763.2</ele>
        <time>2013-04-23T12:59:02Z</time>
      </trkpt>
      <trkpt lat="42.903830" lon="0.446779">
        <ele>1760.3</ele>
        <time>2013-04-23T12:59:12Z</time>
      </trkpt>
      <trkpt lat="42.903775" lon="0.446670">
        <ele>1757.4</ele>
        <time>2013-04-23T12:59:22Z</time>
      </trkpt>
      <trkpt lat="42.903735" lon="0.446551">
        <ele>1754.1</ele>
        <time>2013-04-23T12:59:32Z</time>
      </trkpt>
      <trkpt lat="42.903681" lon="0.446446">
        <ele>1750.7</ele>
        <time>2013-04-23T12:59:42Z</time>
      </trkpt>
      <trkpt lat="42.903636" lon="0.446328">
        <ele>1748.8</ele>
        <time>2013-04-23T12:59:52Z</time>
      </trkpt>
      <trkpt lat="42.903595" lon="0.446220">
        <ele>1745.4</ele>
        <time>2013-04-23T13:00:03Z</time>
      </trkpt>
      <trkpt lat="42.903550" lon="0.446102">
        <ele>1742.5</ele>
        <time>2013-04-23T13:00:13Z</time>
      </trkpt>
      <trkpt lat="42.903499" lon="0.445994">
        <ele>1740.1</ele>
        <time>2013-04-23T13:00:23Z</time>
      </trkpt>
      <trkpt lat="42.903441" lon="0.445893">
        <ele>1738.2</ele>
        <time>2013-04-23T13:00:33Z</time>
      </trkpt>
      <trkpt lat="42.903390" lon="0.445781">
        <ele>1735.3</ele>
        <time>2013-04-23T13:00:43Z</time>
      </trkpt>
      <trkpt lat="42.903349" lon="0.445670">
        <ele>1731.9</ele>
        <time>2013-04-23T13:00:53Z</time>
      </trkpt>
      <trkpt lat="42.903297" lon="0.445558">
        <ele>1729.6</ele>
        <time>2013-04-23T13:01:03Z</time>
      </trkpt>
      <trkpt lat="42.903247" lon="0.445447">
        <ele>1727.6</ele>
        <time>2013-04-23T13:01:13Z</time>
      </trkpt>
      <trkpt lat="42.903200" lon="0.445346">
        <ele>1724.7</ele>
        <time>2013-04-23T13:01:23Z</time>
      </trkpt>
      <trkpt lat="42.903160" lon="0.445230">
        <ele>1722.8</ele>
        <time>2013-04-23T13:01:32Z</time>
      </trkpt>
      <trkpt lat="42.903140" lon="0.445096">
        <ele>1721.4</ele>
        <time>2013-04-23T13:01:42Z</time>
      </trkpt>
      <trkpt lat="42.903134" lon="0.444973">
        <ele>1719.5</ele>
        <time>2013-04-23T13:01:51Z</time>
      </trkpt>
      <trkpt lat="42.903134" lon="0.444833">
        <ele>1718.0</ele>
        <time>2013-04-23T13:02:01Z</time>
      </trkpt>
      <trkpt lat="42.903126" lon="0.444706">
        <ele>1718.0</ele>
        <time>2013-04-23T13:02:10Z</time>
      </trkpt>
      <trkpt lat="42.903118" lon="0.444567">
        <ele>1717.1</ele>
        <time>2013-04-23T13:02:21Z</time>
      </trkpt>
      <trkpt lat="42.903129" lon="0.444464">
        <ele>1717.5</ele>
        <time>2013-04-23T13:04:14Z</time>
      </trkpt>
      <trkpt lat="42.903125" lon="0.444446">
        <ele>1717.1</ele>
        <time>2013-04-23T13:07:08Z</time>
      </trkpt>
      <trkpt lat="42.903130" lon="0.444350">
        <ele>1717.1</ele>
        <time>2013-04-23T13:07:38Z</time>
      </trkpt>
      <trkpt lat="42.903149" lon="0.444213">
        <ele>1717.1</ele>
        <time>2013-04-23T13:07:50Z</time>
      </trkpt>
      <trkpt lat="42.903161" lon="0.444082">
        <ele>1717.1</ele>
        <time>2013-04-23T13:08:00Z</time>
      </trkpt>
      <trkpt lat="42.903160" lon="0.443949">
        <ele>1717.5</ele>
        <time>2013-04-23T13:08:12Z</time>
      </trkpt>
      <trkpt lat="42.903181" lon="0.443830">
        <ele>1718.0</ele>
        <time>2013-04-23T13:08:22Z</time>
      </trkpt>
      <trkpt lat="42.903198" lon="0.443702">
        <ele>1718.5</ele>
        <time>2013-04-23T13:08:33Z</time>
      </trkpt>
      <trkpt lat="42.903221" lon="0.443578">
        <ele>1719.0</ele>
        <time>2013-04-23T13:08:49Z</time>
      </trkpt>
      <trkpt lat="42.903259" lon="0.443442">
        <ele>1719.9</ele>
        <time>2013-04-23T13:09:03Z</time>
      </trkpt>
      <trkpt lat="42.903288" lon="0.443325">
        <ele>1720.9</ele>
        <time>2013-04-23T13:09:17Z</time>
      </trkpt>
      <trkpt lat="42.903308" lon="0.443216">
        <ele>1721.9</ele>
        <time>2013-04-23T13:09:29Z</time>
      </trkpt>
      <trkpt lat="42.903324" lon="0.443107">
        <ele>1721.9</ele>
        <time>2013-04-23T13:09:43Z</time>
      </trkpt>
      <trkpt lat="42.903347" lon="0.442993">
        <ele>1723.8</ele>
        <time>2013-04-23T13:09:55Z</time>
      </trkpt>
      <trkpt lat="42.903382" lon="0.442877">
        <ele>1723.8</ele>
        <time>2013-04-23T13:10:13Z</time>
      </trkpt>
      <trkpt lat="42.903415" lon="0.442745">
        <ele>1724.3</ele>
        <time>2013-04-23T13:10:27Z</time>
      </trkpt>
      <trkpt lat="42.903436" lon="0.442605">
        <ele>1725.7</ele>
        <time>2013-04-23T13:10:42Z</time>
      </trkpt>
      <trkpt lat="42.903454" lon="0.442464">
        <ele>1725.7</ele>
        <time>2013-04-23T13:11:01Z</time>
      </trkpt>
      <trkpt lat="42.903450" lon="0.442335">
        <ele>1727.6</ele>
        <time>2013-04-23T13:11:16Z</time>
      </trkpt>
      <trkpt lat="42.903475" lon="0.442190">
        <ele>1728.1</ele>
        <time>2013-04-23T13:11:31Z</time>
      </trkpt>
      <trkpt lat="42.903488" lon="0.442061">
        <ele>1728.6</ele>
        <time>2013-04-23T13:11:44Z</time>
      </trkpt>
      <trkpt lat="42.903503" lon="0.441927">
        <ele>1728.6</ele>
        <time>2013-04-23T13:11:58Z</time>
      </trkpt>
      <trkpt lat="42.903532" lon="0.441806">
        <ele>1729.1</ele>
        <time>2013-04-23T13:12:10Z</time>
      </trkpt>
      <trkpt lat="42.903553" lon="0.441682">
        <ele>1729.6</ele>
        <time>2013-04-23T13:12:23Z</time>
      </trkpt>
      <trkpt lat="42.903560" lon="0.441554">
        <ele>1729.6</ele>
        <time>2013-04-23T13:12:37Z</time>
        <name>Cap d Artigue Couade</name>
      </trkpt>
      <trkpt lat="42.903569" lon="0.441423">
        <ele>1730.0</ele>
        <time>2013-04-23T13:12:50Z</time>
      </trkpt>
      <trkpt lat="42.903579" lon="0.441277">
        <ele>1730.5</ele>
        <time>2013-04-23T13:13:04Z</time>
      </trkpt>
      <trkpt lat="42.903617" lon="0.441145">
        <ele>1731.0</ele>
        <time>2013-04-23T13:13:18Z</time>
      </trkpt>
      <trkpt lat="42.903670" lon="0.441022">
        <ele>1730.5</ele>
        <time>2013-04-23T13:13:30Z</time>
      </trkpt>
      <trkpt lat="42.903714" lon="0.440893">
        <ele>1729.6</ele>
        <time>2013-04-23T13:13:44Z</time>
      </trkpt>
      <trkpt lat="42.903765" lon="0.440753">
        <ele>1728.6</ele>
        <time>2013-04-23T13:13:59Z</time>
      </trkpt>
      <trkpt lat="42.903800" lon="0.440600">
        <ele>1729.1</ele>
        <time>2013-04-23T13:14:13Z</time>
      </trkpt>
      <trkpt lat="42.903862" lon="0.440462">
        <ele>1727.6</ele>
        <time>2013-04-23T13:14:24Z</time>
      </trkpt>
      <trkpt lat="42.903894" lon="0.440320">
        <ele>1726.7</ele>
        <time>2013-04-23T13:14:35Z</time>
      </trkpt>
      <trkpt lat="42.903933" lon="0.440194">
        <ele>1725.2</ele>
        <time>2013-04-23T13:14:45Z</time>
      </trkpt>
      <trkpt lat="42.903967" lon="0.440075">
        <ele>1724.7</ele>
        <time>2013-04-23T13:14:55Z</time>
      </trkpt>
      <trkpt lat="42.904005" lon="0.439949">
        <ele>1724.3</ele>
        <time>2013-04-23T13:15:05Z</time>
      </trkpt>
      <trkpt lat="42.904028" lon="0.439826">
        <ele>1723.3</ele>
        <time>2013-04-23T13:15:15Z</time>
      </trkpt>
      <trkpt lat="42.904063" lon="0.439703">
        <ele>1722.8</ele>
        <time>2013-04-23T13:15:25Z</time>
      </trkpt>
      <trkpt lat="42.904093" lon="0.439585">
        <ele>1721.9</ele>
        <time>2013-04-23T13:15:35Z</time>
      </trkpt>
      <trkpt lat="42.904115" lon="0.439457">
        <ele>1721.4</ele>
        <time>2013-04-23T13:15:45Z</time>
      </trkpt>
      <trkpt lat="42.904148" lon="0.439333">
        <ele>1719.9</ele>
        <time>2013-04-23T13:15:55Z</time>
      </trkpt>
      <trkpt lat="42.904184" lon="0.439214">
        <ele>1719.5</ele>
        <time>2013-04-23T13:16:05Z</time>
      </trkpt>
      <trkpt lat="42.904234" lon="0.439114">
        <ele>1718.5</ele>
        <time>2013-04-23T13:16:14Z</time>
      </trkpt>
      <trkpt lat="42.904285" lon="0.438994">
        <ele>1717.5</ele>
        <time>2013-04-23T13:16:24Z</time>
      </trkpt>
      <trkpt lat="42.904330" lon="0.438882">
        <ele>1716.6</ele>
        <time>2013-04-23T13:16:33Z</time>
      </trkpt>
      <trkpt lat="42.904355" lon="0.438750">
        <ele>1715.6</ele>
        <time>2013-04-23T13:16:43Z</time>
      </trkpt>
      <trkpt lat="42.904401" lon="0.438632">
        <ele>1714.2</ele>
        <time>2013-04-23T13:16:53Z</time>
      </trkpt>
      <trkpt lat="42.904443" lon="0.438513">
        <ele>1713.7</ele>
        <time>2013-04-23T13:17:03Z</time>
      </trkpt>
      <trkpt lat="42.904478" lon="0.438391">
        <ele>1712.7</ele>
        <time>2013-04-23T13:17:13Z</time>
      </trkpt>
      <trkpt lat="42.904515" lon="0.438271">
        <ele>1712.2</ele>
        <time>2013-04-23T13:17:33Z</time>
      </trkpt>
      <trkpt lat="42.904561" lon="0.438155">
        <ele>1711.3</ele>
        <time>2013-04-23T13:18:25Z</time>
      </trkpt>
      <trkpt lat="42.904598" lon="0.438048">
        <ele>1710.3</ele>
        <time>2013-04-23T13:18:36Z</time>
      </trkpt>
      <trkpt lat="42.904676" lon="0.437974">
        <ele>1709.4</ele>
        <time>2013-04-23T13:18:50Z</time>
      </trkpt>
      <trkpt lat="42.904718" lon="0.437879">
        <ele>1707.4</ele>
        <time>2013-04-23T13:20:18Z</time>
      </trkpt>
      <trkpt lat="42.904787" lon="0.437771">
        <ele>1706.5</ele>
        <time>2013-04-23T13:20:30Z</time>
      </trkpt>
      <trkpt lat="42.904865" lon="0.437683">
        <ele>1704.6</ele>
        <time>2013-04-23T13:20:43Z</time>
      </trkpt>
      <trkpt lat="42.904936" lon="0.437601">
        <ele>1703.1</ele>
        <time>2013-04-23T13:20:55Z</time>
      </trkpt>
      <trkpt lat="42.905010" lon="0.437512">
        <ele>1701.7</ele>
        <time>2013-04-23T13:21:06Z</time>
      </trkpt>
      <trkpt lat="42.905082" lon="0.437432">
        <ele>1700.7</ele>
        <time>2013-04-23T13:21:17Z</time>
      </trkpt>
      <trkpt lat="42.905147" lon="0.437335">
        <ele>1700.2</ele>
        <time>2013-04-23T13:21:28Z</time>
      </trkpt>
      <trkpt lat="42.905212" lon="0.437212">
        <ele>1699.3</ele>
        <time>2013-04-23T13:21:39Z</time>
      </trkpt>
      <trkpt lat="42.905262" lon="0.437095">
        <ele>1699.3</ele>
        <time>2013-04-23T13:21:51Z</time>
      </trkpt>
      <trkpt lat="42.905309" lon="0.436975">
        <ele>1698.3</ele>
        <time>2013-04-23T13:22:04Z</time>
      </trkpt>
      <trkpt lat="42.905355" lon="0.436860">
        <ele>1697.8</ele>
        <time>2013-04-23T13:22:17Z</time>
      </trkpt>
      <trkpt lat="42.905408" lon="0.436741">
        <ele>1697.8</ele>
        <time>2013-04-23T13:22:30Z</time>
      </trkpt>
      <trkpt lat="42.905439" lon="0.436613">
        <ele>1697.3</ele>
        <time>2013-04-23T13:22:44Z</time>
      </trkpt>
      <trkpt lat="42.905432" lon="0.436451">
        <ele>1696.9</ele>
        <time>2013-04-23T13:23:00Z</time>
      </trkpt>
      <trkpt lat="42.905458" lon="0.436317">
        <ele>1696.9</ele>
        <time>2013-04-23T13:23:13Z</time>
      </trkpt>
      <trkpt lat="42.905506" lon="0.436179">
        <ele>1696.4</ele>
        <time>2013-04-23T13:23:27Z</time>
      </trkpt>
      <trkpt lat="42.905522" lon="0.436027">
        <ele>1696.4</ele>
        <time>2013-04-23T13:23:43Z</time>
      </trkpt>
      <trkpt lat="42.905523" lon="0.435883">
        <ele>1696.9</ele>
        <time>2013-04-23T13:23:57Z</time>
      </trkpt>
      <trkpt lat="42.905576" lon="0.435722">
        <ele>1696.4</ele>
        <time>2013-04-23T13:24:10Z</time>
      </trkpt>
      <trkpt lat="42.905638" lon="0.435576">
        <ele>1694.9</ele>
        <time>2013-04-23T13:24:59Z</time>
      </trkpt>
      <trkpt lat="42.905673" lon="0.435584">
        <ele>1693.5</ele>
        <time>2013-04-23T13:25:25Z</time>
      </trkpt>
      <trkpt lat="42.905684" lon="0.435449">
        <ele>1694.0</ele>
        <time>2013-04-23T13:25:48Z</time>
      </trkpt>
      <trkpt lat="42.905764" lon="0.435340">
        <ele>1691.1</ele>
        <time>2013-04-23T13:26:02Z</time>
      </trkpt>
      <trkpt lat="42.905830" lon="0.435221">
        <ele>1690.1</ele>
        <time>2013-04-23T13:26:17Z</time>
      </trkpt>
      <trkpt lat="42.905917" lon="0.435117">
        <ele>1688.2</ele>
        <time>2013-04-23T13:26:31Z</time>
      </trkpt>
      <trkpt lat="42.905960" lon="0.434998">
        <ele>1686.8</ele>
        <time>2013-04-23T13:26:43Z</time>
      </trkpt>
      <trkpt lat="42.905973" lon="0.434864">
        <ele>1684.8</ele>
        <time>2013-04-23T13:26:56Z</time>
      </trkpt>
      <trkpt lat="42.906017" lon="0.434746">
        <ele>1682.4</ele>
        <time>2013-04-23T13:27:12Z</time>
      </trkpt>
      <trkpt lat="42.906111" lon="0.434654">
        <ele>1681.0</ele>
        <time>2013-04-23T13:27:26Z</time>
      </trkpt>
      <trkpt lat="42.906224" lon="0.434549">
        <ele>1678.6</ele>
        <time>2013-04-23T13:27:42Z</time>
      </trkpt>
      <trkpt lat="42.906294" lon="0.434467">
        <ele>1676.7</ele>
        <time>2013-04-23T13:27:54Z</time>
      </trkpt>
      <trkpt lat="42.906381" lon="0.434379">
        <ele>1675.2</ele>
        <time>2013-04-23T13:28:06Z</time>
      </trkpt>
      <trkpt lat="42.906484" lon="0.434318">
        <ele>1673.3</ele>
        <time>2013-04-23T13:28:18Z</time>
      </trkpt>
      <trkpt lat="42.906554" lon="0.434223">
        <ele>1672.3</ele>
        <time>2013-04-23T13:28:29Z</time>
      </trkpt>
      <trkpt lat="42.906619" lon="0.434118">
        <ele>1670.9</ele>
        <time>2013-04-23T13:28:40Z</time>
      </trkpt>
      <trkpt lat="42.906698" lon="0.434043">
        <ele>1669.9</ele>
        <time>2013-04-23T13:28:50Z</time>
      </trkpt>
      <trkpt lat="42.906775" lon="0.433974">
        <ele>1668.5</ele>
        <time>2013-04-23T13:29:00Z</time>
      </trkpt>
      <trkpt lat="42.906846" lon="0.433899">
        <ele>1668.0</ele>
        <time>2013-04-23T13:29:09Z</time>
      </trkpt>
      <trkpt lat="42.906926" lon="0.433820">
        <ele>1667.1</ele>
        <time>2013-04-23T13:29:20Z</time>
      </trkpt>
      <trkpt lat="42.906960" lon="0.433867">
        <ele>1666.1</ele>
        <time>2013-04-23T13:30:00Z</time>
      </trkpt>
      <trkpt lat="42.907005" lon="0.433754">
        <ele>1665.6</ele>
        <time>2013-04-23T13:31:30Z</time>
      </trkpt>
      <trkpt lat="42.907116" lon="0.433697">
        <ele>1665.1</ele>
        <time>2013-04-23T13:31:41Z</time>
      </trkpt>
      <trkpt lat="42.907190" lon="0.433629">
        <ele>1663.7</ele>
        <time>2013-04-23T13:31:51Z</time>
      </trkpt>
      <trkpt lat="42.907289" lon="0.433562">
        <ele>1663.7</ele>
        <time>2013-04-23T13:32:03Z</time>
      </trkpt>
      <trkpt lat="42.907371" lon="0.433474">
        <ele>1662.7</ele>
        <time>2013-04-23T13:32:15Z</time>
      </trkpt>
      <trkpt lat="42.907448" lon="0.433403">
        <ele>1662.3</ele>
        <time>2013-04-23T13:32:25Z</time>
      </trkpt>
      <trkpt lat="42.907535" lon="0.433346">
        <ele>1661.3</ele>
        <time>2013-04-23T13:32:36Z</time>
      </trkpt>
      <trkpt lat="42.907634" lon="0.433315">
        <ele>1662.3</ele>
        <time>2013-04-23T13:32:48Z</time>
      </trkpt>
      <trkpt lat="42.907727" lon="0.433276">
        <ele>1662.3</ele>
        <time>2013-04-23T13:33:07Z</time>
      </trkpt>
      <trkpt lat="42.907818" lon="0.433231">
        <ele>1662.7</ele>
        <time>2013-04-23T13:33:21Z</time>
      </trkpt>
      <trkpt lat="42.907872" lon="0.433192">
        <ele>1662.7</ele>
        <time>2013-04-23T13:34:01Z</time>
      </trkpt>
      <trkpt lat="42.908010" lon="0.433128">
        <ele>1662.7</ele>
        <time>2013-04-23T13:34:22Z</time>
      </trkpt>
      <trkpt lat="42.908103" lon="0.433152">
        <ele>1662.7</ele>
        <time>2013-04-23T13:34:47Z</time>
      </trkpt>
      <trkpt lat="42.908202" lon="0.433197">
        <ele>1662.7</ele>
        <time>2013-04-23T13:35:07Z</time>
      </trkpt>
      <trkpt lat="42.908278" lon="0.433132">
        <ele>1663.2</ele>
        <time>2013-04-23T13:35:38Z</time>
      </trkpt>
      <trkpt lat="42.908392" lon="0.433131">
        <ele>1661.8</ele>
        <time>2013-04-23T13:35:53Z</time>
      </trkpt>
      <trkpt lat="42.908503" lon="0.433089">
        <ele>1661.8</ele>
        <time>2013-04-23T13:36:08Z</time>
      </trkpt>
      <trkpt lat="42.908634" lon="0.433028">
        <ele>1660.8</ele>
        <time>2013-04-23T13:36:25Z</time>
      </trkpt>
      <trkpt lat="42.908725" lon="0.432986">
        <ele>1659.8</ele>
        <time>2013-04-23T13:36:39Z</time>
      </trkpt>
      <trkpt lat="42.908845" lon="0.432905">
        <ele>1658.4</ele>
        <time>2013-04-23T13:36:53Z</time>
      </trkpt>
      <trkpt lat="42.909035" lon="0.432898">
        <ele>1657.4</ele>
        <time>2013-04-23T13:37:14Z</time>
      </trkpt>
      <trkpt lat="42.909226" lon="0.432858">
        <ele>1656.5</ele>
        <time>2013-04-23T13:37:31Z</time>
      </trkpt>
      <trkpt lat="42.909383" lon="0.432775">
        <ele>1656.0</ele>
        <time>2013-04-23T13:37:48Z</time>
      </trkpt>
      <trkpt lat="42.909526" lon="0.432725">
        <ele>1656.0</ele>
        <time>2013-04-23T13:38:03Z</time>
      </trkpt>
      <trkpt lat="42.909674" lon="0.432724">
        <ele>1655.1</ele>
        <time>2013-04-23T13:38:19Z</time>
      </trkpt>
      <trkpt lat="42.909799" lon="0.432663">
        <ele>1655.5</ele>
        <time>2013-04-23T13:38:32Z</time>
      </trkpt>
      <trkpt lat="42.909913" lon="0.432618">
        <ele>1653.6</ele>
        <time>2013-04-23T13:38:47Z</time>
      </trkpt>
      <trkpt lat="42.910097" lon="0.432613">
        <ele>1649.8</ele>
        <time>2013-04-23T13:39:04Z</time>
      </trkpt>
      <trkpt lat="42.910232" lon="0.432617">
        <ele>1653.1</ele>
        <time>2013-04-23T13:40:28Z</time>
      </trkpt>
      <trkpt lat="42.910371" lon="0.432611">
        <ele>1655.1</ele>
        <time>2013-04-23T13:40:44Z</time>
      </trkpt>
      <trkpt lat="42.910486" lon="0.432575">
        <ele>1657.0</ele>
        <time>2013-04-23T13:41:00Z</time>
      </trkpt>
      <trkpt lat="42.910622" lon="0.432516">
        <ele>1657.4</ele>
        <time>2013-04-23T13:41:18Z</time>
      </trkpt>
      <trkpt lat="42.910777" lon="0.432463">
        <ele>1655.5</ele>
        <time>2013-04-23T13:41:36Z</time>
      </trkpt>
      <trkpt lat="42.910942" lon="0.432336">
        <ele>1655.5</ele>
        <time>2013-04-23T13:41:57Z</time>
      </trkpt>
      <trkpt lat="42.911036" lon="0.432225">
        <ele>1655.5</ele>
        <time>2013-04-23T13:42:09Z</time>
      </trkpt>
      <trkpt lat="42.911112" lon="0.432036">
        <ele>1654.1</ele>
        <time>2013-04-23T13:42:24Z</time>
      </trkpt>
      <trkpt lat="42.911191" lon="0.431896">
        <ele>1652.2</ele>
        <time>2013-04-23T13:42:38Z</time>
      </trkpt>
      <trkpt lat="42.911241" lon="0.431725">
        <ele>1650.2</ele>
        <time>2013-04-23T13:42:51Z</time>
      </trkpt>
      <trkpt lat="42.911295" lon="0.431584">
        <ele>1647.8</ele>
        <time>2013-04-23T13:43:04Z</time>
      </trkpt>
      <trkpt lat="42.911348" lon="0.431444">
        <ele>1646.4</ele>
        <time>2013-04-23T13:43:15Z</time>
      </trkpt>
      <trkpt lat="42.911398" lon="0.431286">
        <ele>1645.9</ele>
        <time>2013-04-23T13:43:29Z</time>
      </trkpt>
      <trkpt lat="42.911430" lon="0.431163">
        <ele>1645.4</ele>
        <time>2013-04-23T13:43:43Z</time>
      </trkpt>
      <trkpt lat="42.911540" lon="0.431072">
        <ele>1644.5</ele>
        <time>2013-04-23T13:44:00Z</time>
      </trkpt>
      <trkpt lat="42.911615" lon="0.430897">
        <ele>1642.1</ele>
        <time>2013-04-23T13:44:13Z</time>
      </trkpt>
      <trkpt lat="42.911723" lon="0.430757">
        <ele>1640.2</ele>
        <time>2013-04-23T13:44:32Z</time>
      </trkpt>
      <trkpt lat="42.911753" lon="0.430573">
        <ele>1640.2</ele>
        <time>2013-04-23T13:46:14Z</time>
      </trkpt>
      <trkpt lat="42.911825" lon="0.430450">
        <ele>1640.2</ele>
        <time>2013-04-23T13:46:29Z</time>
      </trkpt>
      <trkpt lat="42.911865" lon="0.430301">
        <ele>1640.2</ele>
        <time>2013-04-23T13:46:42Z</time>
      </trkpt>
      <trkpt lat="42.911939" lon="0.430184">
        <ele>1640.6</ele>
        <time>2013-04-23T13:46:55Z</time>
      </trkpt>
      <trkpt lat="42.911934" lon="0.429930">
        <ele>1620.6</ele>
        <time>2013-04-23T13:47:13Z</time>
      </trkpt>
      <trkpt lat="42.912038" lon="0.429721">
        <ele>1619.2</ele>
        <time>2013-04-23T13:47:30Z</time>
      </trkpt>
      <trkpt lat="42.912076" lon="0.429474">
        <ele>1622.1</ele>
        <time>2013-04-23T13:47:48Z</time>
      </trkpt>
      <trkpt lat="42.912153" lon="0.429160">
        <ele>1625.9</ele>
        <time>2013-04-23T13:48:11Z</time>
      </trkpt>
      <trkpt lat="42.912284" lon="0.428944">
        <ele>1621.1</ele>
        <time>2013-04-23T13:48:31Z</time>
      </trkpt>
      <trkpt lat="42.912295" lon="0.428779">
        <ele>1619.2</ele>
        <time>2013-04-23T13:48:51Z</time>
      </trkpt>
      <trkpt lat="42.912251" lon="0.428667">
        <ele>1618.4</ele>
        <time>2013-04-23T13:49:08Z</time>
      </trkpt>
      <trkpt lat="42.912022" lon="0.428518">
        <ele>1617.6</ele>
        <time>2013-04-23T13:49:22Z</time>
      </trkpt>
      <trkpt lat="42.911808" lon="0.428398">
        <ele>1615.6</ele>
        <time>2013-04-23T13:49:34Z</time>
      </trkpt>
      <trkpt lat="42.911666" lon="0.428122">
        <ele>1605.8</ele>
        <time>2013-04-23T13:49:46Z</time>
      </trkpt>
      <trkpt lat="42.911584" lon="0.427875">
        <ele>1597.0</ele>
        <time>2013-04-23T13:50:42Z</time>
      </trkpt>
      <trkpt lat="42.911562" lon="0.427524">
        <ele>1585.6</ele>
        <time>2013-04-23T13:51:20Z</time>
      </trkpt>
      <trkpt lat="42.911578" lon="0.427106">
        <ele>1574.5</ele>
        <time>2013-04-23T13:52:21Z</time>
      </trkpt>
      <trkpt lat="42.911650" lon="0.426740">
        <ele>1563.2</ele>
        <time>2013-04-23T13:53:42Z</time>
      </trkpt>
      <trkpt lat="42.911666" lon="0.426411">
        <ele>1558.2</ele>
        <time>2013-04-23T13:58:35Z</time>
      </trkpt>
      <trkpt lat="42.911754" lon="0.425925">
        <ele>1549.3</ele>
        <time>2013-04-23T13:58:51Z</time>
      </trkpt>
      <trkpt lat="42.911786" lon="0.425485">
        <ele>1542.1</ele>
        <time>2013-04-23T13:59:09Z</time>
      </trkpt>
      <trkpt lat="42.911808" lon="0.424924">
        <ele>1533.1</ele>
        <time>2013-04-23T13:59:47Z</time>
      </trkpt>
      <trkpt lat="42.911797" lon="0.424595">
        <ele>1527.6</ele>
        <time>2013-04-23T14:00:36Z</time>
      </trkpt>
      <trkpt lat="42.911797" lon="0.424087">
        <ele>1517.7</ele>
        <time>2013-04-23T14:01:03Z</time>
      </trkpt>
      <trkpt lat="42.911819" lon="0.423512">
        <ele>1504.0</ele>
        <time>2013-04-23T14:01:25Z</time>
      </trkpt>
      <trkpt lat="42.911896" lon="0.423004">
        <ele>1494.4</ele>
        <time>2013-04-23T14:01:54Z</time>
      </trkpt>
      <trkpt lat="42.912060" lon="0.422563">
        <ele>1484.0</ele>
        <time>2013-04-23T14:02:29Z</time>
      </trkpt>
      <trkpt lat="42.912246" lon="0.422152">
        <ele>1474.4</ele>
        <time>2013-04-23T14:03:05Z</time>
      </trkpt>
      <trkpt lat="42.912366" lon="0.421980">
        <ele>1469.2</ele>
        <time>2013-04-23T14:06:44Z</time>
      </trkpt>
      <trkpt lat="42.912520" lon="0.421547">
        <ele>1463.5</ele>
        <time>2013-04-23T14:07:15Z</time>
      </trkpt>
      <trkpt lat="42.912613" lon="0.420957">
        <ele>1461.4</ele>
        <time>2013-04-23T14:13:45Z</time>
      </trkpt>
      <trkpt lat="42.912651" lon="0.420613">
        <ele>1459.8</ele>
        <time>2013-04-23T14:15:51Z</time>
      </trkpt>
      <trkpt lat="42.912659" lon="0.419980">
        <ele>1458.4</ele>
        <time>2013-04-23T14:16:06Z</time>
      </trkpt>
      <trkpt lat="42.912639" lon="0.419290">
        <ele>1462.1</ele>
        <time>2013-04-23T14:16:19Z</time>
      </trkpt>
      <trkpt lat="42.912707" lon="0.418553">
        <ele>1463.0</ele>
        <time>2013-04-23T14:16:31Z</time>
      </trkpt>
      <trkpt lat="42.912755" lon="0.417955">
        <ele>1462.3</ele>
        <time>2013-04-23T14:16:47Z</time>
      </trkpt>
      <trkpt lat="42.912850" lon="0.417442">
        <ele>1458.8</ele>
        <time>2013-04-23T14:17:12Z</time>
      </trkpt>
      <trkpt lat="42.912878" lon="0.417181">
        <ele>1457.9</ele>
        <time>2013-04-23T14:17:29Z</time>
      </trkpt>
      <trkpt lat="42.912946" lon="0.416929">
        <ele>1455.5</ele>
        <time>2013-04-23T14:17:48Z</time>
        <name>Plan des Pins</name>
      </trkpt>
      <trkpt lat="42.913008" lon="0.416733">
        <ele>1453.3</ele>
        <time>2013-04-23T14:18:03Z</time>
      </trkpt>
      <trkpt lat="42.912994" lon="0.416229">
        <ele>1452.5</ele>
        <time>2013-04-23T14:18:16Z</time>
      </trkpt>
      <trkpt lat="42.912885" lon="0.415753">
        <ele>1453.9</ele>
        <time>2013-04-23T14:18:37Z</time>
      </trkpt>
      <trkpt lat="42.912707" lon="0.415277">
        <ele>1453.3</ele>
        <time>2013-04-23T14:18:55Z</time>
      </trkpt>
      <trkpt lat="42.912468" lon="0.414801">
        <ele>1452.6</ele>
        <time>2013-04-23T14:20:26Z</time>
      </trkpt>
      <trkpt lat="42.912295" lon="0.414389">
        <ele>1449.0</ele>
        <time>2013-04-23T14:20:38Z</time>
      </trkpt>
      <trkpt lat="42.912090" lon="0.413608">
        <ele>1440.6</ele>
        <time>2013-04-23T14:20:51Z</time>
      </trkpt>
      <trkpt lat="42.911997" lon="0.413317">
        <ele>1438.1</ele>
        <time>2013-04-23T14:21:02Z</time>
      </trkpt>
      <trkpt lat="42.912022" lon="0.412932">
        <ele>1432.5</ele>
        <time>2013-04-23T14:21:16Z</time>
      </trkpt>
      <trkpt lat="42.912022" lon="0.412664">
        <ele>1429.0</ele>
        <time>2013-04-23T14:21:28Z</time>
      </trkpt>
      <trkpt lat="42.911945" lon="0.412396">
        <ele>1429.8</ele>
        <time>2013-04-23T14:21:46Z</time>
      </trkpt>
      <trkpt lat="42.911902" lon="0.411860">
        <ele>1430.8</ele>
        <time>2013-04-23T14:21:58Z</time>
      </trkpt>
      <trkpt lat="42.912312" lon="0.412198">
        <ele>1415.0</ele>
        <time>2013-04-23T14:22:15Z</time>
      </trkpt>
      <trkpt lat="42.913123" lon="0.412990">
        <ele>1386.4</ele>
        <time>2013-04-23T14:22:31Z</time>
      </trkpt>
      <trkpt lat="42.913559" lon="0.413468">
        <ele>1380.2</ele>
        <time>2013-04-23T14:22:49Z</time>
      </trkpt>
      <trkpt lat="42.914080" lon="0.413760">
        <ele>1368.4</ele>
        <time>2013-04-23T14:23:00Z</time>
      </trkpt>
      <trkpt lat="42.914648" lon="0.414196">
        <ele>1356.6</ele>
        <time>2013-04-23T14:23:12Z</time>
      </trkpt>
      <trkpt lat="42.915048" lon="0.414579">
        <ele>1339.8</ele>
        <time>2013-04-23T14:23:23Z</time>
      </trkpt>
      <trkpt lat="42.915371" lon="0.414939">
        <ele>1318.6</ele>
        <time>2013-04-23T14:23:35Z</time>
      </trkpt>
      <trkpt lat="42.915465" lon="0.415415">
        <ele>1311.9</ele>
        <time>2013-04-23T14:23:49Z</time>
      </trkpt>
      <trkpt lat="42.915482" lon="0.416123">
        <ele>1310.0</ele>
        <time>2013-04-23T14:24:08Z</time>
      </trkpt>
      <trkpt lat="42.915405" lon="0.416646">
        <ele>1313.7</ele>
        <time>2013-04-23T14:24:30Z</time>
      </trkpt>
      <trkpt lat="42.915337" lon="0.417122">
        <ele>1320.3</ele>
        <time>2013-04-23T14:24:50Z</time>
      </trkpt>
      <trkpt lat="42.915465" lon="0.417481">
        <ele>1315.8</ele>
        <time>2013-04-23T14:25:03Z</time>
      </trkpt>
      <trkpt lat="42.915584" lon="0.417783">
        <ele>1315.7</ele>
        <time>2013-04-23T14:25:17Z</time>
      </trkpt>
      <trkpt lat="42.915687" lon="0.417920">
        <ele>1314.0</ele>
        <time>2013-04-23T14:43:24Z</time>
      </trkpt>
      <trkpt lat="42.915790" lon="0.418046">
        <ele>1312.1</ele>
        <time>2013-04-23T14:43:33Z</time>
      </trkpt>
      <trkpt lat="42.915882" lon="0.418164">
        <ele>1310.3</ele>
        <time>2013-04-23T14:43:41Z</time>
      </trkpt>
      <trkpt lat="42.915974" lon="0.418283">
        <ele>1308.2</ele>
        <time>2013-04-23T14:43:51Z</time>
      </trkpt>
      <trkpt lat="42.916110" lon="0.418424">
        <ele>1302.5</ele>
        <time>2013-04-23T14:44:04Z</time>
      </trkpt>
      <trkpt lat="42.916229" lon="0.418616">
        <ele>1296.2</ele>
        <time>2013-04-23T14:44:15Z</time>
      </trkpt>
      <trkpt lat="42.916323" lon="0.418747">
        <ele>1291.2</ele>
        <time>2013-04-23T14:44:25Z</time>
        <name>Piste forestiere</name>
      </trkpt>
      <trkpt lat="42.916460" lon="0.418705">
        <ele>1334.9</ele>
        <time>2013-04-23T14:44:35Z</time>
      </trkpt>
      <trkpt lat="42.916411" lon="0.418550">
        <ele>1334.0</ele>
        <time>2013-04-23T14:44:45Z</time>
      </trkpt>
      <trkpt lat="42.916350" lon="0.418417">
        <ele>1333.0</ele>
        <time>2013-04-23T14:44:53Z</time>
      </trkpt>
      <trkpt lat="42.916281" lon="0.418307">
        <ele>1333.5</ele>
        <time>2013-04-23T14:45:03Z</time>
      </trkpt>
      <trkpt lat="42.916202" lon="0.418167">
        <ele>1332.0</ele>
        <time>2013-04-23T14:45:13Z</time>
      </trkpt>
      <trkpt lat="42.916139" lon="0.418043">
        <ele>1331.6</ele>
        <time>2013-04-23T14:45:22Z</time>
      </trkpt>
      <trkpt lat="42.916072" lon="0.417927">
        <ele>1331.1</ele>
        <time>2013-04-23T14:45:31Z</time>
      </trkpt>
      <trkpt lat="42.916003" lon="0.417802">
        <ele>1329.6</ele>
        <time>2013-04-23T14:45:40Z</time>
      </trkpt>
      <trkpt lat="42.915935" lon="0.417646">
        <ele>1329.2</ele>
        <time>2013-04-23T14:45:51Z</time>
      </trkpt>
      <trkpt lat="42.915868" lon="0.417474">
        <ele>1327.7</ele>
        <time>2013-04-23T14:46:04Z</time>
      </trkpt>
      <trkpt lat="42.915808" lon="0.417223">
        <ele>1326.3</ele>
        <time>2013-04-23T14:46:21Z</time>
      </trkpt>
      <trkpt lat="42.915842" lon="0.417077">
        <ele>1324.8</ele>
        <time>2013-04-23T14:46:33Z</time>
      </trkpt>
      <trkpt lat="42.915904" lon="0.416934">
        <ele>1324.3</ele>
        <time>2013-04-23T14:46:47Z</time>
      </trkpt>
      <trkpt lat="42.915951" lon="0.416811">
        <ele>1322.9</ele>
        <time>2013-04-23T14:46:57Z</time>
      </trkpt>
      <trkpt lat="42.916036" lon="0.416676">
        <ele>1322.4</ele>
        <time>2013-04-23T14:47:07Z</time>
      </trkpt>
      <trkpt lat="42.916086" lon="0.416539">
        <ele>1321.0</ele>
        <time>2013-04-23T14:47:17Z</time>
      </trkpt>
      <trkpt lat="42.916143" lon="0.416408">
        <ele>1320.0</ele>
        <time>2013-04-23T14:47:26Z</time>
      </trkpt>
      <trkpt lat="42.916162" lon="0.416272">
        <ele>1319.1</ele>
        <time>2013-04-23T14:47:35Z</time>
      </trkpt>
      <trkpt lat="42.916197" lon="0.416133">
        <ele>1317.6</ele>
        <time>2013-04-23T14:47:45Z</time>
      </trkpt>
      <trkpt lat="42.916180" lon="0.415955">
        <ele>1316.7</ele>
        <time>2013-04-23T14:47:56Z</time>
      </trkpt>
      <trkpt lat="42.916173" lon="0.415792">
        <ele>1314.7</ele>
        <time>2013-04-23T14:48:05Z</time>
      </trkpt>
      <trkpt lat="42.916160" lon="0.415645">
        <ele>1313.8</ele>
        <time>2013-04-23T14:48:14Z</time>
      </trkpt>
      <trkpt lat="42.916184" lon="0.415498">
        <ele>1311.9</ele>
        <time>2013-04-23T14:48:24Z</time>
      </trkpt>
      <trkpt lat="42.916239" lon="0.415342">
        <ele>1309.9</ele>
        <time>2013-04-23T14:48:35Z</time>
      </trkpt>
      <trkpt lat="42.916301" lon="0.415227">
        <ele>1309.4</ele>
        <time>2013-04-23T14:48:46Z</time>
      </trkpt>
      <trkpt lat="42.916392" lon="0.415112">
        <ele>1308.0</ele>
        <time>2013-04-23T14:48:56Z</time>
      </trkpt>
      <trkpt lat="42.916445" lon="0.414972">
        <ele>1306.1</ele>
        <time>2013-04-23T14:49:06Z</time>
      </trkpt>
      <trkpt lat="42.916521" lon="0.414838">
        <ele>1304.2</ele>
        <time>2013-04-23T14:49:15Z</time>
      </trkpt>
      <trkpt lat="42.916561" lon="0.414663">
        <ele>1302.2</ele>
        <time>2013-04-23T14:49:26Z</time>
      </trkpt>
      <trkpt lat="42.916581" lon="0.414436">
        <ele>1298.9</ele>
        <time>2013-04-23T14:49:42Z</time>
      </trkpt>
      <trkpt lat="42.916544" lon="0.414212">
        <ele>1295.5</ele>
        <time>2013-04-23T14:49:56Z</time>
      </trkpt>
      <trkpt lat="42.916519" lon="0.414058">
        <ele>1294.1</ele>
        <time>2013-04-23T14:50:05Z</time>
      </trkpt>
      <trkpt lat="42.916517" lon="0.413865">
        <ele>1291.2</ele>
        <time>2013-04-23T14:50:16Z</time>
      </trkpt>
      <trkpt lat="42.916518" lon="0.413740">
        <ele>1289.8</ele>
        <time>2013-04-23T14:50:23Z</time>
      </trkpt>
      <trkpt lat="42.916536" lon="0.413612">
        <ele>1288.3</ele>
        <time>2013-04-23T14:50:31Z</time>
      </trkpt>
      <trkpt lat="42.916574" lon="0.413465">
        <ele>1286.4</ele>
        <time>2013-04-23T14:50:40Z</time>
      </trkpt>
      <trkpt lat="42.916582" lon="0.413316">
        <ele>1284.5</ele>
        <time>2013-04-23T14:50:50Z</time>
      </trkpt>
      <trkpt lat="42.916499" lon="0.413169">
        <ele>1282.5</ele>
        <time>2013-04-23T14:50:58Z</time>
      </trkpt>
      <trkpt lat="42.916410" lon="0.413047">
        <ele>1280.6</ele>
        <time>2013-04-23T14:51:07Z</time>
      </trkpt>
      <trkpt lat="42.916322" lon="0.412908">
        <ele>1279.2</ele>
        <time>2013-04-23T14:51:18Z</time>
      </trkpt>
      <trkpt lat="42.916229" lon="0.412811">
        <ele>1277.7</ele>
        <time>2013-04-23T14:51:28Z</time>
      </trkpt>
      <trkpt lat="42.916152" lon="0.412686">
        <ele>1275.8</ele>
        <time>2013-04-23T14:51:37Z</time>
      </trkpt>
      <trkpt lat="42.916092" lon="0.412577">
        <ele>1274.4</ele>
        <time>2013-04-23T14:51:46Z</time>
      </trkpt>
      <trkpt lat="42.916041" lon="0.412455">
        <ele>1272.9</ele>
        <time>2013-04-23T14:51:54Z</time>
      </trkpt>
      <trkpt lat="42.915996" lon="0.412310">
        <ele>1270.5</ele>
        <time>2013-04-23T14:52:05Z</time>
      </trkpt>
      <trkpt lat="42.915950" lon="0.412152">
        <ele>1269.1</ele>
        <time>2013-04-23T14:52:13Z</time>
      </trkpt>
      <trkpt lat="42.915878" lon="0.411986">
        <ele>1268.1</ele>
        <time>2013-04-23T14:52:21Z</time>
      </trkpt>
      <trkpt lat="42.915836" lon="0.411858">
        <ele>1266.2</ele>
        <time>2013-04-23T14:52:30Z</time>
      </trkpt>
      <trkpt lat="42.915773" lon="0.411744">
        <ele>1264.8</ele>
        <time>2013-04-23T14:52:39Z</time>
      </trkpt>
      <trkpt lat="42.915685" lon="0.411618">
        <ele>1262.8</ele>
        <time>2013-04-23T14:52:51Z</time>
      </trkpt>
      <trkpt lat="42.915661" lon="0.411484">
        <ele>1260.4</ele>
        <time>2013-04-23T14:53:05Z</time>
      </trkpt>
      <trkpt lat="42.915674" lon="0.411290">
        <ele>1259.5</ele>
        <time>2013-04-23T14:53:13Z</time>
      </trkpt>
      <trkpt lat="42.915676" lon="0.411142">
        <ele>1261.4</ele>
        <time>2013-04-23T14:53:22Z</time>
      </trkpt>
      <trkpt lat="42.915729" lon="0.411018">
        <ele>1256.6</ele>
        <time>2013-04-23T14:53:32Z</time>
      </trkpt>
      <trkpt lat="42.915755" lon="0.411132">
        <ele>1256.1</ele>
        <time>2013-04-23T14:53:46Z</time>
      </trkpt>
      <trkpt lat="42.915767" lon="0.411256">
        <ele>1254.7</ele>
        <time>2013-04-23T14:53:54Z</time>
      </trkpt>
      <trkpt lat="42.915790" lon="0.411361">
        <ele>1253.2</ele>
        <time>2013-04-23T14:54:06Z</time>
      </trkpt>
      <trkpt lat="42.915921" lon="0.411505">
        <ele>1251.3</ele>
        <time>2013-04-23T14:54:22Z</time>
      </trkpt>
      <trkpt lat="42.916024" lon="0.411653">
        <ele>1248.9</ele>
        <time>2013-04-23T14:54:37Z</time>
      </trkpt>
      <trkpt lat="42.916117" lon="0.411846">
        <ele>1247.0</ele>
        <time>2013-04-23T14:54:52Z</time>
      </trkpt>
      <trkpt lat="42.916258" lon="0.412076">
        <ele>1245.0</ele>
        <time>2013-04-23T14:55:05Z</time>
      </trkpt>
      <trkpt lat="42.916342" lon="0.412168">
        <ele>1242.6</ele>
        <time>2013-04-23T14:55:18Z</time>
      </trkpt>
      <trkpt lat="42.916469" lon="0.412223">
        <ele>1240.2</ele>
        <time>2013-04-23T14:55:34Z</time>
      </trkpt>
      <trkpt lat="42.916654" lon="0.412274">
        <ele>1238.8</ele>
        <time>2013-04-23T14:55:47Z</time>
      </trkpt>
      <trkpt lat="42.916787" lon="0.412397">
        <ele>1236.9</ele>
        <time>2013-04-23T14:55:58Z</time>
      </trkpt>
      <trkpt lat="42.916902" lon="0.412606">
        <ele>1235.9</ele>
        <time>2013-04-23T14:56:08Z</time>
      </trkpt>
      <trkpt lat="42.916975" lon="0.412748">
        <ele>1234.5</ele>
        <time>2013-04-23T14:56:20Z</time>
      </trkpt>
      <trkpt lat="42.917027" lon="0.412887">
        <ele>1233.0</ele>
        <time>2013-04-23T14:56:34Z</time>
      </trkpt>
      <trkpt lat="42.917101" lon="0.412998">
        <ele>1232.1</ele>
        <time>2013-04-23T14:56:43Z</time>
      </trkpt>
      <trkpt lat="42.917156" lon="0.413116">
        <ele>1230.6</ele>
        <time>2013-04-23T14:56:51Z</time>
      </trkpt>
      <trkpt lat="42.917222" lon="0.413238">
        <ele>1229.2</ele>
        <time>2013-04-23T14:56:59Z</time>
      </trkpt>
      <trkpt lat="42.917252" lon="0.413399">
        <ele>1229.2</ele>
        <time>2013-04-23T14:57:08Z</time>
      </trkpt>
      <trkpt lat="42.917265" lon="0.413575">
        <ele>1227.7</ele>
        <time>2013-04-23T14:57:31Z</time>
      </trkpt>
      <trkpt lat="42.917282" lon="0.413729">
        <ele>1226.3</ele>
        <time>2013-04-23T14:57:40Z</time>
      </trkpt>
      <trkpt lat="42.917268" lon="0.413897">
        <ele>1225.3</ele>
        <time>2013-04-23T14:57:51Z</time>
      </trkpt>
      <trkpt lat="42.917267" lon="0.414099">
        <ele>1222.9</ele>
        <time>2013-04-23T14:58:03Z</time>
      </trkpt>
      <trkpt lat="42.917267" lon="0.414263">
        <ele>1221.5</ele>
        <time>2013-04-23T14:58:12Z</time>
      </trkpt>
      <trkpt lat="42.917245" lon="0.414393">
        <ele>1220.1</ele>
        <time>2013-04-23T14:58:20Z</time>
      </trkpt>
      <trkpt lat="42.917250" lon="0.414562">
        <ele>1219.1</ele>
        <time>2013-04-23T14:58:30Z</time>
      </trkpt>
      <trkpt lat="42.917284" lon="0.414732">
        <ele>1217.7</ele>
        <time>2013-04-23T14:58:40Z</time>
      </trkpt>
      <trkpt lat="42.917292" lon="0.414875">
        <ele>1217.2</ele>
        <time>2013-04-23T14:58:48Z</time>
      </trkpt>
      <trkpt lat="42.917294" lon="0.415007">
        <ele>1215.2</ele>
        <time>2013-04-23T14:58:56Z</time>
      </trkpt>
      <trkpt lat="42.917272" lon="0.415150">
        <ele>1214.3</ele>
        <time>2013-04-23T14:59:08Z</time>
      </trkpt>
      <trkpt lat="42.917331" lon="0.415373">
        <ele>1213.3</ele>
        <time>2013-04-23T14:59:23Z</time>
      </trkpt>
      <trkpt lat="42.917376" lon="0.415543">
        <ele>1212.4</ele>
        <time>2013-04-23T14:59:34Z</time>
      </trkpt>
      <trkpt lat="42.917429" lon="0.415712">
        <ele>1210.9</ele>
        <time>2013-04-23T14:59:44Z</time>
      </trkpt>
      <trkpt lat="42.917443" lon="0.415856">
        <ele>1209.5</ele>
        <time>2013-04-23T14:59:53Z</time>
      </trkpt>
      <trkpt lat="42.917458" lon="0.416027">
        <ele>1208.0</ele>
        <time>2013-04-23T15:00:04Z</time>
      </trkpt>
      <trkpt lat="42.917434" lon="0.416200">
        <ele>1206.6</ele>
        <time>2013-04-23T15:00:15Z</time>
      </trkpt>
      <trkpt lat="42.917422" lon="0.416344">
        <ele>1205.2</ele>
        <time>2013-04-23T15:00:24Z</time>
      </trkpt>
      <trkpt lat="42.917581" lon="0.416548">
        <ele>1202.3</ele>
        <time>2013-04-23T15:00:51Z</time>
      </trkpt>
      <trkpt lat="42.917749" lon="0.416704">
        <ele>1200.3</ele>
        <time>2013-04-23T15:01:08Z</time>
      </trkpt>
      <trkpt lat="42.917837" lon="0.416830">
        <ele>1198.4</ele>
        <time>2013-04-23T15:01:18Z</time>
      </trkpt>
      <trkpt lat="42.917943" lon="0.416989">
        <ele>1197.0</ele>
        <time>2013-04-23T15:01:32Z</time>
      </trkpt>
      <trkpt lat="42.918056" lon="0.417123">
        <ele>1195.1</ele>
        <time>2013-04-23T15:01:42Z</time>
      </trkpt>
      <trkpt lat="42.918198" lon="0.417218">
        <ele>1193.6</ele>
        <time>2013-04-23T15:01:56Z</time>
      </trkpt>
      <trkpt lat="42.918363" lon="0.417370">
        <ele>1191.7</ele>
        <time>2013-04-23T15:02:10Z</time>
      </trkpt>
      <trkpt lat="42.918497" lon="0.417516">
        <ele>1190.7</ele>
        <time>2013-04-23T15:02:22Z</time>
      </trkpt>
      <trkpt lat="42.918590" lon="0.417667">
        <ele>1189.8</ele>
        <time>2013-04-23T15:02:35Z</time>
      </trkpt>
      <trkpt lat="42.918684" lon="0.417810">
        <ele>1189.8</ele>
        <time>2013-04-23T15:02:48Z</time>
      </trkpt>
      <trkpt lat="42.918733" lon="0.417937">
        <ele>1187.8</ele>
        <time>2013-04-23T15:02:58Z</time>
      </trkpt>
      <trkpt lat="42.918721" lon="0.418137">
        <ele>1185.4</ele>
        <time>2013-04-23T15:07:39Z</time>
      </trkpt>
      <trkpt lat="42.918701" lon="0.418265">
        <ele>1184.5</ele>
        <time>2013-04-23T15:07:48Z</time>
      </trkpt>
      <trkpt lat="42.918660" lon="0.418420">
        <ele>1183.0</ele>
        <time>2013-04-23T15:07:59Z</time>
      </trkpt>
      <trkpt lat="42.918616" lon="0.418565">
        <ele>1182.1</ele>
        <time>2013-04-23T15:08:08Z</time>
      </trkpt>
      <trkpt lat="42.918592" lon="0.418703">
        <ele>1181.1</ele>
        <time>2013-04-23T15:08:17Z</time>
      </trkpt>
      <trkpt lat="42.918570" lon="0.418840">
        <ele>1180.2</ele>
        <time>2013-04-23T15:08:25Z</time>
      </trkpt>
      <trkpt lat="42.918543" lon="0.418998">
        <ele>1179.2</ele>
        <time>2013-04-23T15:08:35Z</time>
      </trkpt>
      <trkpt lat="42.918510" lon="0.419143">
        <ele>1177.8</ele>
        <time>2013-04-23T15:08:46Z</time>
      </trkpt>
      <trkpt lat="42.918555" lon="0.419304">
        <ele>1176.8</ele>
        <time>2013-04-23T15:08:59Z</time>
      </trkpt>
      <trkpt lat="42.918534" lon="0.419467">
        <ele>1175.8</ele>
        <time>2013-04-23T15:09:10Z</time>
      </trkpt>
      <trkpt lat="42.918507" lon="0.419600">
        <ele>1174.9</ele>
        <time>2013-04-23T15:09:20Z</time>
      </trkpt>
      <trkpt lat="42.918506" lon="0.419750">
        <ele>1174.4</ele>
        <time>2013-04-23T15:09:29Z</time>
      </trkpt>
      <trkpt lat="42.918548" lon="0.419928">
        <ele>1173.9</ele>
        <time>2013-04-23T15:09:39Z</time>
      </trkpt>
      <trkpt lat="42.918579" lon="0.420084">
        <ele>1172.9</ele>
        <time>2013-04-23T15:09:50Z</time>
      </trkpt>
      <trkpt lat="42.918581" lon="0.420245">
        <ele>1172.5</ele>
        <time>2013-04-23T15:10:01Z</time>
      </trkpt>
      <trkpt lat="42.918610" lon="0.420411">
        <ele>1171.5</ele>
        <time>2013-04-23T15:10:12Z</time>
      </trkpt>
      <trkpt lat="42.918654" lon="0.420571">
        <ele>1170.1</ele>
        <time>2013-04-23T15:10:23Z</time>
      </trkpt>
      <trkpt lat="42.918712" lon="0.420705">
        <ele>1170.1</ele>
        <time>2013-04-23T15:10:32Z</time>
      </trkpt>
      <trkpt lat="42.918754" lon="0.420872">
        <ele>1168.1</ele>
        <time>2013-04-23T15:10:42Z</time>
      </trkpt>
      <trkpt lat="42.918795" lon="0.421050">
        <ele>1167.2</ele>
        <time>2013-04-23T15:10:54Z</time>
      </trkpt>
      <trkpt lat="42.918807" lon="0.421225">
        <ele>1166.2</ele>
        <time>2013-04-23T15:11:05Z</time>
      </trkpt>
      <trkpt lat="42.918811" lon="0.421408">
        <ele>1164.8</ele>
        <time>2013-04-23T15:11:16Z</time>
      </trkpt>
      <trkpt lat="42.918814" lon="0.421572">
        <ele>1164.8</ele>
        <time>2013-04-23T15:11:26Z</time>
      </trkpt>
      <trkpt lat="42.918836" lon="0.421715">
        <ele>1163.8</ele>
        <time>2013-04-23T15:11:35Z</time>
      </trkpt>
      <trkpt lat="42.918890" lon="0.421858">
        <ele>1162.8</ele>
        <time>2013-04-23T15:11:44Z</time>
      </trkpt>
      <trkpt lat="42.918861" lon="0.422011">
        <ele>1162.4</ele>
        <time>2013-04-23T15:11:54Z</time>
      </trkpt>
      <trkpt lat="42.918815" lon="0.422153">
        <ele>1160.9</ele>
        <time>2013-04-23T15:12:03Z</time>
      </trkpt>
      <trkpt lat="42.918766" lon="0.422275">
        <ele>1159.5</ele>
        <time>2013-04-23T15:12:11Z</time>
      </trkpt>
      <trkpt lat="42.918841" lon="0.422311">
        <ele>1159.0</ele>
        <time>2013-04-23T15:12:24Z</time>
      </trkpt>
      <trkpt lat="42.919005" lon="0.422369">
        <ele>1158.5</ele>
        <time>2013-04-23T15:12:40Z</time>
      </trkpt>
      <trkpt lat="42.919088" lon="0.422486">
        <ele>1158.1</ele>
        <time>2013-04-23T15:12:51Z</time>
      </trkpt>
      <trkpt lat="42.919195" lon="0.422551">
        <ele>1156.6</ele>
        <time>2013-04-23T15:13:00Z</time>
      </trkpt>
      <trkpt lat="42.919265" lon="0.422680">
        <ele>1156.6</ele>
        <time>2013-04-23T15:13:08Z</time>
      </trkpt>
      <trkpt lat="42.919336" lon="0.422723">
        <ele>1155.2</ele>
        <time>2013-04-23T15:13:17Z</time>
      </trkpt>
      <trkpt lat="42.919346" lon="0.422570">
        <ele>1151.8</ele>
        <time>2013-04-23T15:13:28Z</time>
      </trkpt>
      <trkpt lat="42.919327" lon="0.422397">
        <ele>1147.0</ele>
        <time>2013-04-23T15:13:39Z</time>
      </trkpt>
      <trkpt lat="42.919291" lon="0.422170">
        <ele>1142.2</ele>
        <time>2013-04-23T15:13:53Z</time>
      </trkpt>
      <trkpt lat="42.919223" lon="0.422110">
        <ele>1141.2</ele>
        <time>2013-04-23T15:14:13Z</time>
      </trkpt>
      <trkpt lat="42.919168" lon="0.421981">
        <ele>1140.7</ele>
        <time>2013-04-23T15:14:25Z</time>
      </trkpt>
      <trkpt lat="42.919185" lon="0.421778">
        <ele>1139.8</ele>
        <time>2013-04-23T15:14:38Z</time>
      </trkpt>
      <trkpt lat="42.919159" lon="0.421460">
        <ele>1138.3</ele>
        <time>2013-04-23T15:14:54Z</time>
      </trkpt>
      <trkpt lat="42.919234" lon="0.421256">
        <ele>1136.4</ele>
        <time>2013-04-23T15:15:05Z</time>
      </trkpt>
      <trkpt lat="42.919223" lon="0.421041">
        <ele>1134.5</ele>
        <time>2013-04-23T15:15:17Z</time>
      </trkpt>
      <trkpt lat="42.919231" lon="0.420895">
        <ele>1133.1</ele>
        <time>2013-04-23T15:15:28Z</time>
      </trkpt>
      <trkpt lat="42.919202" lon="0.420584">
        <ele>1131.1</ele>
        <time>2013-04-23T15:15:41Z</time>
      </trkpt>
      <trkpt lat="42.919179" lon="0.420330">
        <ele>1128.7</ele>
        <time>2013-04-23T15:15:56Z</time>
      </trkpt>
      <trkpt lat="42.919106" lon="0.420143">
        <ele>1127.3</ele>
        <time>2013-04-23T15:16:09Z</time>
      </trkpt>
      <trkpt lat="42.919063" lon="0.419928">
        <ele>1125.8</ele>
        <time>2013-04-23T15:16:22Z</time>
      </trkpt>
      <trkpt lat="42.919044" lon="0.419752">
        <ele>1123.4</ele>
        <time>2013-04-23T15:16:31Z</time>
      </trkpt>
      <trkpt lat="42.919066" lon="0.419565">
        <ele>1121.5</ele>
        <time>2013-04-23T15:16:40Z</time>
      </trkpt>
      <trkpt lat="42.919131" lon="0.419377">
        <ele>1121.0</ele>
        <time>2013-04-23T15:16:48Z</time>
      </trkpt>
      <trkpt lat="42.919187" lon="0.419243">
        <ele>1120.1</ele>
        <time>2013-04-23T15:16:57Z</time>
      </trkpt>
      <trkpt lat="42.919268" lon="0.419115">
        <ele>1118.6</ele>
        <time>2013-04-23T15:17:06Z</time>
      </trkpt>
      <trkpt lat="42.919350" lon="0.418984">
        <ele>1117.2</ele>
        <time>2013-04-23T15:17:16Z</time>
      </trkpt>
      <trkpt lat="42.919415" lon="0.418869">
        <ele>1116.2</ele>
        <time>2013-04-23T15:17:24Z</time>
      </trkpt>
      <trkpt lat="42.919476" lon="0.418739">
        <ele>1115.3</ele>
        <time>2013-04-23T15:17:32Z</time>
      </trkpt>
      <trkpt lat="42.919534" lon="0.418634">
        <ele>1113.8</ele>
        <time>2013-04-23T15:17:40Z</time>
      </trkpt>
      <trkpt lat="42.919602" lon="0.418533">
        <ele>1112.9</ele>
        <time>2013-04-23T15:17:49Z</time>
      </trkpt>
      <trkpt lat="42.919686" lon="0.418451">
        <ele>1111.9</ele>
        <time>2013-04-23T15:17:59Z</time>
      </trkpt>
      <trkpt lat="42.919796" lon="0.418360">
        <ele>1110.9</ele>
        <time>2013-04-23T15:18:11Z</time>
      </trkpt>
      <trkpt lat="42.919899" lon="0.418200">
        <ele>1109.5</ele>
        <time>2013-04-23T15:18:20Z</time>
      </trkpt>
      <trkpt lat="42.920023" lon="0.418126">
        <ele>1108.1</ele>
        <time>2013-04-23T15:18:35Z</time>
      </trkpt>
      <trkpt lat="42.920008" lon="0.418001">
        <ele>1107.1</ele>
        <time>2013-04-23T15:19:16Z</time>
      </trkpt>
      <trkpt lat="42.920033" lon="0.417859">
        <ele>1105.7</ele>
        <time>2013-04-23T15:19:28Z</time>
      </trkpt>
      <trkpt lat="42.920079" lon="0.417715">
        <ele>1104.2</ele>
        <time>2013-04-23T15:19:40Z</time>
      </trkpt>
      <trkpt lat="42.920124" lon="0.417527">
        <ele>1102.3</ele>
        <time>2013-04-23T15:19:56Z</time>
      </trkpt>
      <trkpt lat="42.920105" lon="0.417259">
        <ele>1101.3</ele>
        <time>2013-04-23T15:20:12Z</time>
      </trkpt>
      <trkpt lat="42.920081" lon="0.417022">
        <ele>1099.4</ele>
        <time>2013-04-23T15:20:24Z</time>
      </trkpt>
      <trkpt lat="42.920022" lon="0.416875">
        <ele>1098.4</ele>
        <time>2013-04-23T15:20:34Z</time>
      </trkpt>
      <trkpt lat="42.919903" lon="0.416736">
        <ele>1098.0</ele>
        <time>2013-04-23T15:20:44Z</time>
      </trkpt>
      <trkpt lat="42.919796" lon="0.416613">
        <ele>1097.0</ele>
        <time>2013-04-23T15:20:55Z</time>
      </trkpt>
      <trkpt lat="42.919689" lon="0.416476">
        <ele>1094.6</ele>
        <time>2013-04-23T15:21:07Z</time>
      </trkpt>
      <trkpt lat="42.919586" lon="0.416417">
        <ele>1093.6</ele>
        <time>2013-04-23T15:21:16Z</time>
      </trkpt>
      <trkpt lat="42.919470" lon="0.416337">
        <ele>1091.2</ele>
        <time>2013-04-23T15:21:28Z</time>
      </trkpt>
      <trkpt lat="42.919354" lon="0.416216">
        <ele>1088.8</ele>
        <time>2013-04-23T15:21:42Z</time>
      </trkpt>
      <trkpt lat="42.919189" lon="0.416005">
        <ele>1087.9</ele>
        <time>2013-04-23T15:21:57Z</time>
      </trkpt>
      <trkpt lat="42.919014" lon="0.415820">
        <ele>1085.9</ele>
        <time>2013-04-23T15:22:12Z</time>
      </trkpt>
      <trkpt lat="42.918960" lon="0.415627">
        <ele>1084.0</ele>
        <time>2013-04-23T15:22:27Z</time>
      </trkpt>
      <trkpt lat="42.918928" lon="0.415346">
        <ele>1081.6</ele>
        <time>2013-04-23T15:22:47Z</time>
      </trkpt>
      <trkpt lat="42.918910" lon="0.415002">
        <ele>1078.7</ele>
        <time>2013-04-23T15:23:07Z</time>
      </trkpt>
      <trkpt lat="42.918899" lon="0.414772">
        <ele>1076.3</ele>
        <time>2013-04-23T15:23:22Z</time>
      </trkpt>
      <trkpt lat="42.918919" lon="0.414567">
        <ele>1074.9</ele>
        <time>2013-04-23T15:23:34Z</time>
      </trkpt>
      <trkpt lat="42.918901" lon="0.414212">
        <ele>1072.0</ele>
        <time>2013-04-23T15:23:52Z</time>
      </trkpt>
      <trkpt lat="42.918923" lon="0.414018">
        <ele>1070.1</ele>
        <time>2013-04-23T15:24:05Z</time>
      </trkpt>
      <trkpt lat="42.918962" lon="0.413797">
        <ele>1068.2</ele>
        <time>2013-04-23T15:24:22Z</time>
      </trkpt>
      <trkpt lat="42.918975" lon="0.413513">
        <ele>1066.7</ele>
        <time>2013-04-23T15:24:36Z</time>
      </trkpt>
      <trkpt lat="42.918982" lon="0.413291">
        <ele>1065.8</ele>
        <time>2013-04-23T15:24:48Z</time>
      </trkpt>
      <trkpt lat="42.919009" lon="0.413016">
        <ele>1064.3</ele>
        <time>2013-04-23T15:25:01Z</time>
      </trkpt>
      <trkpt lat="42.919061" lon="0.412875">
        <ele>1063.4</ele>
        <time>2013-04-23T15:25:11Z</time>
      </trkpt>
      <trkpt lat="42.919128" lon="0.412695">
        <ele>1062.4</ele>
        <time>2013-04-23T15:25:22Z</time>
      </trkpt>
      <trkpt lat="42.919172" lon="0.412549">
        <ele>1060.9</ele>
        <time>2013-04-23T15:25:34Z</time>
      </trkpt>
      <trkpt lat="42.919236" lon="0.412370">
        <ele>1058.6</ele>
        <time>2013-04-23T15:25:56Z</time>
      </trkpt>
      <trkpt lat="42.919769" lon="0.411609">
        <ele>1055.2</ele>
        <time>2013-04-23T15:26:53Z</time>
      </trkpt>
      <trkpt lat="42.919924" lon="0.411571">
        <ele>1055.7</ele>
        <time>2013-04-23T15:27:32Z</time>
      </trkpt>
      <trkpt lat="42.919980" lon="0.411385">
        <ele>1053.7</ele>
        <time>2013-04-23T15:28:15Z</time>
      </trkpt>
      <trkpt lat="42.920084" lon="0.411326">
        <ele>1053.3</ele>
        <time>2013-04-23T15:28:31Z</time>
      </trkpt>
      <trkpt lat="42.920165" lon="0.411255">
        <ele>1052.3</ele>
        <time>2013-04-23T15:28:41Z</time>
      </trkpt>
      <trkpt lat="42.920324" lon="0.411149">
        <ele>1051.8</ele>
        <time>2013-04-23T15:28:55Z</time>
      </trkpt>
      <trkpt lat="42.920465" lon="0.411070">
        <ele>1050.9</ele>
        <time>2013-04-23T15:29:07Z</time>
      </trkpt>
      <trkpt lat="42.920558" lon="0.410980">
        <ele>1049.9</ele>
        <time>2013-04-23T15:29:18Z</time>
      </trkpt>
      <trkpt lat="42.920644" lon="0.410817">
        <ele>1048.9</ele>
        <time>2013-04-23T15:29:30Z</time>
      </trkpt>
      <trkpt lat="42.920660" lon="0.410593">
        <ele>1047.0</ele>
        <time>2013-04-23T15:29:46Z</time>
      </trkpt>
      <trkpt lat="42.920578" lon="0.410369">
        <ele>1045.6</ele>
        <time>2013-04-23T15:30:00Z</time>
      </trkpt>
      <trkpt lat="42.920506" lon="0.410142">
        <ele>1044.6</ele>
        <time>2013-04-23T15:30:15Z</time>
      </trkpt>
      <trkpt lat="42.920391" lon="0.409792">
        <ele>1042.2</ele>
        <time>2013-04-23T15:30:45Z</time>
      </trkpt>
      <trkpt lat="42.920346" lon="0.409536">
        <ele>1040.8</ele>
        <time>2013-04-23T15:30:58Z</time>
      </trkpt>
      <trkpt lat="42.920280" lon="0.409320">
        <ele>1039.8</ele>
        <time>2013-04-23T15:31:12Z</time>
      </trkpt>
      <trkpt lat="42.920187" lon="0.409147">
        <ele>1037.9</ele>
        <time>2013-04-23T15:31:26Z</time>
      </trkpt>
      <trkpt lat="42.920152" lon="0.408852">
        <ele>1036.4</ele>
        <time>2013-04-23T15:31:45Z</time>
      </trkpt>
      <trkpt lat="42.920158" lon="0.408600">
        <ele>1036.0</ele>
        <time>2013-04-23T15:32:00Z</time>
      </trkpt>
      <trkpt lat="42.920155" lon="0.408402">
        <ele>1035.0</ele>
        <time>2013-04-23T15:32:13Z</time>
      </trkpt>
      <trkpt lat="42.920169" lon="0.408199">
        <ele>1035.0</ele>
        <time>2013-04-23T15:32:26Z</time>
      </trkpt>
      <trkpt lat="42.920214" lon="0.408027">
        <ele>1034.0</ele>
        <time>2013-04-23T15:32:38Z</time>
      </trkpt>
      <trkpt lat="42.920226" lon="0.407875">
        <ele>1034.0</ele>
        <time>2013-04-23T15:32:48Z</time>
      </trkpt>
      <trkpt lat="42.920271" lon="0.407736">
        <ele>1034.0</ele>
        <time>2013-04-23T15:32:57Z</time>
      </trkpt>
      <trkpt lat="42.920266" lon="0.407605">
        <ele>1034.0</ele>
        <time>2013-04-23T15:33:06Z</time>
      </trkpt>
      <trkpt lat="42.920294" lon="0.407419">
        <ele>1033.6</ele>
        <time>2013-04-23T15:33:18Z</time>
      </trkpt>
      <trkpt lat="42.920310" lon="0.407240">
        <ele>1034.0</ele>
        <time>2013-04-23T15:33:35Z</time>
      </trkpt>
    </trkseg>
  </trk>
</gpx>

